<?xml version="1.0" encoding="UTF-8" standalone="no" ?>
<gpx xmlns="http://www.topografix.com/GPX/1/1" xmlns:xsi="http://www.w3.org/2001/XMLSchema-instance" xsi:schemaLocation="http://www.topografix.com/GPX/1/1 http://www.topografix.com/GPX/1/1/gpx.xsd" version="1.1" creator="VisuGPX - https://www.visugpx.com">
  <metadata>
    <name>83-M-Villecroze</name>
    <desc><![CDATA[83-M-Villecroze :Cros de Paradis %u2013 la croix]]></desc>
  </metadata>
  <trk>
    <name><![CDATA[2015-06-03-M-villecroze]]></name>
    <trkseg>
      <trkpt lat="43.58377" lon="6.27562">
        <ele>360</ele>
        <time>2015-06-03T11:50:25Z</time>
      </trkpt>
      <trkpt lat="43.58384" lon="6.27557">
        <ele>361.7</ele>
        <time>2015-06-03T11:52:06Z</time>
      </trkpt>
      <trkpt lat="43.58385" lon="6.27557">
        <ele>361.5</ele>
        <time>2015-06-03T11:52:07Z</time>
      </trkpt>
      <trkpt lat="43.58379" lon="6.27547">
        <ele>361.6</ele>
        <time>2015-06-03T11:54:25Z</time>
      </trkpt>
      <trkpt lat="43.58365" lon="6.27535">
        <ele>361.8</ele>
        <time>2015-06-03T11:54:42Z</time>
      </trkpt>
      <trkpt lat="43.5836" lon="6.27526">
        <ele>361.6</ele>
        <time>2015-06-03T11:55:01Z</time>
      </trkpt>
      <trkpt lat="43.58353" lon="6.27519">
        <ele>361.7</ele>
        <time>2015-06-03T11:55:09Z</time>
      </trkpt>
      <trkpt lat="43.58346" lon="6.27512">
        <ele>361.7</ele>
        <time>2015-06-03T11:55:19Z</time>
      </trkpt>
      <trkpt lat="43.58338" lon="6.27508">
        <ele>362.6</ele>
        <time>2015-06-03T11:55:36Z</time>
      </trkpt>
      <trkpt lat="43.58338" lon="6.27507">
        <ele>362.8</ele>
        <time>2015-06-03T11:55:37Z</time>
      </trkpt>
      <trkpt lat="43.58338" lon="6.27483">
        <ele>363.5</ele>
        <time>2015-06-03T11:56:01Z</time>
      </trkpt>
      <trkpt lat="43.58331" lon="6.27476">
        <ele>363.6</ele>
        <time>2015-06-03T11:56:08Z</time>
      </trkpt>
      <trkpt lat="43.58324" lon="6.27473">
        <ele>363.4</ele>
        <time>2015-06-03T11:56:13Z</time>
      </trkpt>
      <trkpt lat="43.58316" lon="6.27475">
        <ele>363.8</ele>
        <time>2015-06-03T11:56:22Z</time>
      </trkpt>
      <trkpt lat="43.58308" lon="6.2748">
        <ele>363.5</ele>
        <time>2015-06-03T11:56:30Z</time>
      </trkpt>
      <trkpt lat="43.583" lon="6.27483">
        <ele>363.3</ele>
        <time>2015-06-03T11:56:38Z</time>
      </trkpt>
      <trkpt lat="43.58299" lon="6.27484">
        <ele>363.1</ele>
        <time>2015-06-03T11:56:39Z</time>
      </trkpt>
      <trkpt lat="43.58286" lon="6.27496">
        <ele>363.4</ele>
        <time>2015-06-03T11:56:57Z</time>
      </trkpt>
      <trkpt lat="43.5828" lon="6.27504">
        <ele>362.7</ele>
        <time>2015-06-03T11:57:07Z</time>
      </trkpt>
      <trkpt lat="43.58272" lon="6.27511">
        <ele>361.6</ele>
        <time>2015-06-03T11:57:15Z</time>
      </trkpt>
      <trkpt lat="43.5827" lon="6.27525">
        <ele>360</ele>
        <time>2015-06-03T11:57:29Z</time>
      </trkpt>
      <trkpt lat="43.58251" lon="6.27527">
        <ele>358</ele>
        <time>2015-06-03T11:57:41Z</time>
      </trkpt>
      <trkpt lat="43.58249" lon="6.2753">
        <ele>358.5</ele>
        <time>2015-06-03T11:57:43Z</time>
      </trkpt>
      <trkpt lat="43.58236" lon="6.27532">
        <ele>355.8</ele>
        <time>2015-06-03T11:58:08Z</time>
      </trkpt>
      <trkpt lat="43.5823" lon="6.27515">
        <ele>354</ele>
        <time>2015-06-03T11:58:16Z</time>
      </trkpt>
      <trkpt lat="43.58225" lon="6.27505">
        <ele>354.4</ele>
        <time>2015-06-03T11:58:21Z</time>
      </trkpt>
      <trkpt lat="43.58221" lon="6.27492">
        <ele>353</ele>
        <time>2015-06-03T11:58:32Z</time>
      </trkpt>
      <trkpt lat="43.58216" lon="6.27479">
        <ele>352</ele>
        <time>2015-06-03T11:58:41Z</time>
      </trkpt>
      <trkpt lat="43.58213" lon="6.27467">
        <ele>352</ele>
        <time>2015-06-03T11:58:49Z</time>
      </trkpt>
      <trkpt lat="43.58214" lon="6.27466">
        <ele>352.1</ele>
        <time>2015-06-03T11:58:51Z</time>
      </trkpt>
      <trkpt lat="43.58207" lon="6.27445">
        <ele>350.1</ele>
        <time>2015-06-03T11:59:11Z</time>
      </trkpt>
      <trkpt lat="43.58204" lon="6.27433">
        <ele>350.3</ele>
        <time>2015-06-03T11:59:18Z</time>
      </trkpt>
      <trkpt lat="43.58205" lon="6.27422">
        <ele>349.9</ele>
        <time>2015-06-03T11:59:23Z</time>
      </trkpt>
      <trkpt lat="43.58204" lon="6.2741">
        <ele>349.1</ele>
        <time>2015-06-03T11:59:31Z</time>
      </trkpt>
      <trkpt lat="43.58204" lon="6.27399">
        <ele>348.9</ele>
        <time>2015-06-03T11:59:37Z</time>
      </trkpt>
      <trkpt lat="43.58204" lon="6.27387">
        <ele>348.7</ele>
        <time>2015-06-03T11:59:43Z</time>
      </trkpt>
      <trkpt lat="43.58204" lon="6.27376">
        <ele>348</ele>
        <time>2015-06-03T11:59:50Z</time>
      </trkpt>
      <trkpt lat="43.58203" lon="6.27364">
        <ele>347</ele>
        <time>2015-06-03T12:00:01Z</time>
      </trkpt>
      <trkpt lat="43.58203" lon="6.27363">
        <ele>347.1</ele>
        <time>2015-06-03T12:00:02Z</time>
      </trkpt>
      <trkpt lat="43.58201" lon="6.27342">
        <ele>347.1</ele>
        <time>2015-06-03T12:00:18Z</time>
      </trkpt>
      <trkpt lat="43.58197" lon="6.27332">
        <ele>346.8</ele>
        <time>2015-06-03T12:00:26Z</time>
      </trkpt>
      <trkpt lat="43.58192" lon="6.27323">
        <ele>346.5</ele>
        <time>2015-06-03T12:00:32Z</time>
      </trkpt>
      <trkpt lat="43.58186" lon="6.27316">
        <ele>346.2</ele>
        <time>2015-06-03T12:00:39Z</time>
      </trkpt>
      <trkpt lat="43.58184" lon="6.27306">
        <ele>345.4</ele>
        <time>2015-06-03T12:00:46Z</time>
      </trkpt>
      <trkpt lat="43.5818" lon="6.27295">
        <ele>346.6</ele>
        <time>2015-06-03T12:00:54Z</time>
      </trkpt>
      <trkpt lat="43.58178" lon="6.27284">
        <ele>346.8</ele>
        <time>2015-06-03T12:01:00Z</time>
      </trkpt>
      <trkpt lat="43.58173" lon="6.27275">
        <ele>346.5</ele>
        <time>2015-06-03T12:01:09Z</time>
      </trkpt>
      <trkpt lat="43.58172" lon="6.27274">
        <ele>346.4</ele>
        <time>2015-06-03T12:01:10Z</time>
      </trkpt>
      <trkpt lat="43.5817" lon="6.27253">
        <ele>346.7</ele>
        <time>2015-06-03T12:01:24Z</time>
      </trkpt>
      <trkpt lat="43.58165" lon="6.27244">
        <ele>346.7</ele>
        <time>2015-06-03T12:01:31Z</time>
      </trkpt>
      <trkpt lat="43.58164" lon="6.27232">
        <ele>346.4</ele>
        <time>2015-06-03T12:01:37Z</time>
      </trkpt>
      <trkpt lat="43.58163" lon="6.2722">
        <ele>346.6</ele>
        <time>2015-06-03T12:01:42Z</time>
      </trkpt>
      <trkpt lat="43.58159" lon="6.27211">
        <ele>346.5</ele>
        <time>2015-06-03T12:01:48Z</time>
      </trkpt>
      <trkpt lat="43.58155" lon="6.27202">
        <ele>347</ele>
        <time>2015-06-03T12:01:55Z</time>
      </trkpt>
      <trkpt lat="43.58151" lon="6.2719">
        <ele>346.7</ele>
        <time>2015-06-03T12:02:04Z</time>
      </trkpt>
      <trkpt lat="43.58149" lon="6.27179">
        <ele>347.2</ele>
        <time>2015-06-03T12:02:12Z</time>
      </trkpt>
      <trkpt lat="43.58148" lon="6.27177">
        <ele>347.2</ele>
        <time>2015-06-03T12:02:13Z</time>
      </trkpt>
      <trkpt lat="43.58144" lon="6.27158">
        <ele>346.9</ele>
        <time>2015-06-03T12:02:28Z</time>
      </trkpt>
      <trkpt lat="43.58141" lon="6.27147">
        <ele>348.2</ele>
        <time>2015-06-03T12:02:34Z</time>
      </trkpt>
      <trkpt lat="43.58138" lon="6.27137">
        <ele>347.7</ele>
        <time>2015-06-03T12:02:41Z</time>
      </trkpt>
      <trkpt lat="43.58138" lon="6.27126">
        <ele>348.2</ele>
        <time>2015-06-03T12:02:50Z</time>
      </trkpt>
      <trkpt lat="43.58136" lon="6.27115">
        <ele>349.3</ele>
        <time>2015-06-03T12:02:58Z</time>
      </trkpt>
      <trkpt lat="43.58133" lon="6.27104">
        <ele>349.4</ele>
        <time>2015-06-03T12:03:07Z</time>
      </trkpt>
      <trkpt lat="43.58129" lon="6.27093">
        <ele>350.6</ele>
        <time>2015-06-03T12:03:17Z</time>
      </trkpt>
      <trkpt lat="43.58129" lon="6.27092">
        <ele>350.6</ele>
        <time>2015-06-03T12:03:18Z</time>
      </trkpt>
      <trkpt lat="43.58122" lon="6.27072">
        <ele>351</ele>
        <time>2015-06-03T12:03:34Z</time>
      </trkpt>
      <trkpt lat="43.58118" lon="6.27062">
        <ele>351.1</ele>
        <time>2015-06-03T12:03:42Z</time>
      </trkpt>
      <trkpt lat="43.58114" lon="6.2705">
        <ele>352.3</ele>
        <time>2015-06-03T12:03:51Z</time>
      </trkpt>
      <trkpt lat="43.58113" lon="6.27039">
        <ele>352.7</ele>
        <time>2015-06-03T12:03:59Z</time>
      </trkpt>
      <trkpt lat="43.5811" lon="6.27028">
        <ele>351.8</ele>
        <time>2015-06-03T12:04:14Z</time>
      </trkpt>
      <trkpt lat="43.58103" lon="6.27021">
        <ele>351.3</ele>
        <time>2015-06-03T12:04:31Z</time>
      </trkpt>
      <trkpt lat="43.58102" lon="6.2702">
        <ele>351.3</ele>
        <time>2015-06-03T12:04:32Z</time>
      </trkpt>
      <trkpt lat="43.58094" lon="6.26983">
        <ele>352</ele>
        <time>2015-06-03T12:05:26Z</time>
      </trkpt>
      <trkpt lat="43.58111" lon="6.27013">
        <ele>352</ele>
        <time>2015-06-03T12:05:42Z</time>
      </trkpt>
      <trkpt lat="43.58116" lon="6.27017">
        <ele>352</ele>
        <time>2015-06-03T12:05:46Z</time>
      </trkpt>
      <trkpt lat="43.58094" lon="6.26997">
        <ele>352.2</ele>
        <time>2015-06-03T12:06:00Z</time>
      </trkpt>
      <trkpt lat="43.58086" lon="6.26995">
        <ele>352.3</ele>
        <time>2015-06-03T12:06:29Z</time>
      </trkpt>
      <trkpt lat="43.58089" lon="6.26984">
        <ele>350.3</ele>
        <time>2015-06-03T12:07:46Z</time>
      </trkpt>
      <trkpt lat="43.58089" lon="6.26983">
        <ele>350.3</ele>
        <time>2015-06-03T12:07:47Z</time>
      </trkpt>
      <trkpt lat="43.58088" lon="6.26961">
        <ele>345.7</ele>
        <time>2015-06-03T12:08:17Z</time>
      </trkpt>
      <trkpt lat="43.58084" lon="6.26951">
        <ele>344.7</ele>
        <time>2015-06-03T12:08:25Z</time>
      </trkpt>
      <trkpt lat="43.58081" lon="6.26939">
        <ele>344.1</ele>
        <time>2015-06-03T12:08:33Z</time>
      </trkpt>
      <trkpt lat="43.58077" lon="6.26929">
        <ele>342.4</ele>
        <time>2015-06-03T12:08:40Z</time>
      </trkpt>
      <trkpt lat="43.58073" lon="6.26918">
        <ele>342.5</ele>
        <time>2015-06-03T12:08:47Z</time>
      </trkpt>
      <trkpt lat="43.58073" lon="6.26917">
        <ele>342.6</ele>
        <time>2015-06-03T12:08:48Z</time>
      </trkpt>
      <trkpt lat="43.58069" lon="6.26897">
        <ele>340.5</ele>
        <time>2015-06-03T12:09:03Z</time>
      </trkpt>
      <trkpt lat="43.58066" lon="6.26887">
        <ele>339.2</ele>
        <time>2015-06-03T12:09:10Z</time>
      </trkpt>
      <trkpt lat="43.58063" lon="6.26875">
        <ele>338.2</ele>
        <time>2015-06-03T12:09:20Z</time>
      </trkpt>
      <trkpt lat="43.58056" lon="6.26867">
        <ele>337.5</ele>
        <time>2015-06-03T12:09:26Z</time>
      </trkpt>
      <trkpt lat="43.58051" lon="6.26859">
        <ele>336.6</ele>
        <time>2015-06-03T12:09:32Z</time>
      </trkpt>
      <trkpt lat="43.58048" lon="6.26848">
        <ele>336</ele>
        <time>2015-06-03T12:09:39Z</time>
      </trkpt>
      <trkpt lat="43.58043" lon="6.26838">
        <ele>335.4</ele>
        <time>2015-06-03T12:09:50Z</time>
      </trkpt>
      <trkpt lat="43.58043" lon="6.26836">
        <ele>335.2</ele>
        <time>2015-06-03T12:09:51Z</time>
      </trkpt>
      <trkpt lat="43.5804" lon="6.26815">
        <ele>333.3</ele>
        <time>2015-06-03T12:10:06Z</time>
      </trkpt>
      <trkpt lat="43.58037" lon="6.26804">
        <ele>331.7</ele>
        <time>2015-06-03T12:10:14Z</time>
      </trkpt>
      <trkpt lat="43.58035" lon="6.26793">
        <ele>331.2</ele>
        <time>2015-06-03T12:10:22Z</time>
      </trkpt>
      <trkpt lat="43.58033" lon="6.26781">
        <ele>330.1</ele>
        <time>2015-06-03T12:10:32Z</time>
      </trkpt>
      <trkpt lat="43.5803" lon="6.2677">
        <ele>329.4</ele>
        <time>2015-06-03T12:10:43Z</time>
      </trkpt>
      <trkpt lat="43.58033" lon="6.26758">
        <ele>329</ele>
        <time>2015-06-03T12:10:52Z</time>
      </trkpt>
      <trkpt lat="43.58033" lon="6.26756">
        <ele>329</ele>
        <time>2015-06-03T12:10:53Z</time>
      </trkpt>
      <trkpt lat="43.5804" lon="6.26737">
        <ele>329</ele>
        <time>2015-06-03T12:11:08Z</time>
      </trkpt>
      <trkpt lat="43.58039" lon="6.26726">
        <ele>329.6</ele>
        <time>2015-06-03T12:11:13Z</time>
      </trkpt>
      <trkpt lat="43.5804" lon="6.26714">
        <ele>329.2</ele>
        <time>2015-06-03T12:11:22Z</time>
      </trkpt>
      <trkpt lat="43.5804" lon="6.26702">
        <ele>329.1</ele>
        <time>2015-06-03T12:11:29Z</time>
      </trkpt>
      <trkpt lat="43.58039" lon="6.26691">
        <ele>329.1</ele>
        <time>2015-06-03T12:11:35Z</time>
      </trkpt>
      <trkpt lat="43.5804" lon="6.26679">
        <ele>329.1</ele>
        <time>2015-06-03T12:11:41Z</time>
      </trkpt>
      <trkpt lat="43.58039" lon="6.26667">
        <ele>329.3</ele>
        <time>2015-06-03T12:11:51Z</time>
      </trkpt>
      <trkpt lat="43.58036" lon="6.26657">
        <ele>330.2</ele>
        <time>2015-06-03T12:11:59Z</time>
      </trkpt>
      <trkpt lat="43.58036" lon="6.26655">
        <ele>330.3</ele>
        <time>2015-06-03T12:12:00Z</time>
      </trkpt>
      <trkpt lat="43.58038" lon="6.26633">
        <ele>330.6</ele>
        <time>2015-06-03T12:12:14Z</time>
      </trkpt>
      <trkpt lat="43.58039" lon="6.26621">
        <ele>331.2</ele>
        <time>2015-06-03T12:12:23Z</time>
      </trkpt>
      <trkpt lat="43.5804" lon="6.2661">
        <ele>331.4</ele>
        <time>2015-06-03T12:12:30Z</time>
      </trkpt>
      <trkpt lat="43.58041" lon="6.26599">
        <ele>332</ele>
        <time>2015-06-03T12:12:39Z</time>
      </trkpt>
      <trkpt lat="43.58046" lon="6.2659">
        <ele>332.3</ele>
        <time>2015-06-03T12:12:48Z</time>
      </trkpt>
      <trkpt lat="43.5805" lon="6.26579">
        <ele>332.3</ele>
        <time>2015-06-03T12:12:57Z</time>
      </trkpt>
      <trkpt lat="43.58057" lon="6.26573">
        <ele>333.5</ele>
        <time>2015-06-03T12:13:10Z</time>
      </trkpt>
      <trkpt lat="43.58058" lon="6.26573">
        <ele>333.5</ele>
        <time>2015-06-03T12:13:11Z</time>
      </trkpt>
      <trkpt lat="43.58073" lon="6.26571">
        <ele>335.9</ele>
        <time>2015-06-03T12:13:30Z</time>
      </trkpt>
      <trkpt lat="43.58081" lon="6.26567">
        <ele>337</ele>
        <time>2015-06-03T12:13:40Z</time>
      </trkpt>
      <trkpt lat="43.58088" lon="6.26561">
        <ele>339.1</ele>
        <time>2015-06-03T12:13:49Z</time>
      </trkpt>
      <trkpt lat="43.58097" lon="6.26559">
        <ele>341</ele>
        <time>2015-06-03T12:14:00Z</time>
      </trkpt>
      <trkpt lat="43.58105" lon="6.26557">
        <ele>341.8</ele>
        <time>2015-06-03T12:14:11Z</time>
      </trkpt>
      <trkpt lat="43.58106" lon="6.26557">
        <ele>342.2</ele>
        <time>2015-06-03T12:14:12Z</time>
      </trkpt>
      <trkpt lat="43.58122" lon="6.26552">
        <ele>344.5</ele>
        <time>2015-06-03T12:14:34Z</time>
      </trkpt>
      <trkpt lat="43.5813" lon="6.26557">
        <ele>345.8</ele>
        <time>2015-06-03T12:14:44Z</time>
      </trkpt>
      <trkpt lat="43.58137" lon="6.26564">
        <ele>348.3</ele>
        <time>2015-06-03T12:14:58Z</time>
      </trkpt>
      <trkpt lat="43.58144" lon="6.2657">
        <ele>348.8</ele>
        <time>2015-06-03T12:15:08Z</time>
      </trkpt>
      <trkpt lat="43.58153" lon="6.26573">
        <ele>348.8</ele>
        <time>2015-06-03T12:15:18Z</time>
      </trkpt>
      <trkpt lat="43.58154" lon="6.26574">
        <ele>348.8</ele>
        <time>2015-06-03T12:15:19Z</time>
      </trkpt>
      <trkpt lat="43.58169" lon="6.26581">
        <ele>351</ele>
        <time>2015-06-03T12:15:38Z</time>
      </trkpt>
      <trkpt lat="43.58178" lon="6.26581">
        <ele>352.4</ele>
        <time>2015-06-03T12:15:54Z</time>
      </trkpt>
      <trkpt lat="43.58184" lon="6.26574">
        <ele>353</ele>
        <time>2015-06-03T12:16:06Z</time>
      </trkpt>
      <trkpt lat="43.58192" lon="6.26568">
        <ele>353.8</ele>
        <time>2015-06-03T12:16:17Z</time>
      </trkpt>
      <trkpt lat="43.582" lon="6.26563">
        <ele>355.9</ele>
        <time>2015-06-03T12:16:29Z</time>
      </trkpt>
      <trkpt lat="43.58201" lon="6.26562">
        <ele>356.3</ele>
        <time>2015-06-03T12:16:30Z</time>
      </trkpt>
      <trkpt lat="43.58213" lon="6.26547">
        <ele>357.9</ele>
        <time>2015-06-03T12:16:50Z</time>
      </trkpt>
      <trkpt lat="43.58217" lon="6.26538">
        <ele>359</ele>
        <time>2015-06-03T12:17:00Z</time>
      </trkpt>
      <trkpt lat="43.58218" lon="6.26526">
        <ele>359.8</ele>
        <time>2015-06-03T12:17:09Z</time>
      </trkpt>
      <trkpt lat="43.58218" lon="6.26514">
        <ele>361.6</ele>
        <time>2015-06-03T12:17:21Z</time>
      </trkpt>
      <trkpt lat="43.58219" lon="6.26502">
        <ele>362.8</ele>
        <time>2015-06-03T12:17:31Z</time>
      </trkpt>
      <trkpt lat="43.58219" lon="6.265">
        <ele>362.5</ele>
        <time>2015-06-03T12:17:32Z</time>
      </trkpt>
      <trkpt lat="43.5822" lon="6.26478">
        <ele>364.4</ele>
        <time>2015-06-03T12:17:53Z</time>
      </trkpt>
      <trkpt lat="43.58219" lon="6.26466">
        <ele>366.5</ele>
        <time>2015-06-03T12:18:08Z</time>
      </trkpt>
      <trkpt lat="43.58217" lon="6.26455">
        <ele>367.4</ele>
        <time>2015-06-03T12:18:19Z</time>
      </trkpt>
      <trkpt lat="43.58215" lon="6.26442">
        <ele>369.2</ele>
        <time>2015-06-03T12:18:33Z</time>
      </trkpt>
      <trkpt lat="43.58215" lon="6.26442">
        <ele>369.1</ele>
        <time>2015-06-03T12:18:34Z</time>
      </trkpt>
      <trkpt lat="43.58221" lon="6.2642">
        <ele>370.3</ele>
        <time>2015-06-03T12:19:24Z</time>
      </trkpt>
      <trkpt lat="43.58222" lon="6.26408">
        <ele>370.3</ele>
        <time>2015-06-03T12:19:35Z</time>
      </trkpt>
      <trkpt lat="43.58221" lon="6.26407">
        <ele>370.3</ele>
        <time>2015-06-03T12:19:36Z</time>
      </trkpt>
      <trkpt lat="43.58217" lon="6.26386">
        <ele>372.2</ele>
        <time>2015-06-03T12:19:55Z</time>
      </trkpt>
      <trkpt lat="43.58215" lon="6.26374">
        <ele>372</ele>
        <time>2015-06-03T12:20:04Z</time>
      </trkpt>
      <trkpt lat="43.58215" lon="6.26363">
        <ele>372.7</ele>
        <time>2015-06-03T12:20:13Z</time>
      </trkpt>
      <trkpt lat="43.58218" lon="6.26352">
        <ele>374.2</ele>
        <time>2015-06-03T12:20:24Z</time>
      </trkpt>
      <trkpt lat="43.58223" lon="6.26343">
        <ele>375</ele>
        <time>2015-06-03T12:20:35Z</time>
      </trkpt>
      <trkpt lat="43.58227" lon="6.26334">
        <ele>376.6</ele>
        <time>2015-06-03T12:20:44Z</time>
      </trkpt>
      <trkpt lat="43.58228" lon="6.26332">
        <ele>376.5</ele>
        <time>2015-06-03T12:20:45Z</time>
      </trkpt>
      <trkpt lat="43.58225" lon="6.26311">
        <ele>378.9</ele>
        <time>2015-06-03T12:21:10Z</time>
      </trkpt>
      <trkpt lat="43.58221" lon="6.263">
        <ele>380.6</ele>
        <time>2015-06-03T12:21:21Z</time>
      </trkpt>
      <trkpt lat="43.58223" lon="6.26288">
        <ele>382.1</ele>
        <time>2015-06-03T12:21:38Z</time>
      </trkpt>
      <trkpt lat="43.58226" lon="6.26276">
        <ele>383.9</ele>
        <time>2015-06-03T12:21:59Z</time>
      </trkpt>
      <trkpt lat="43.58226" lon="6.26276">
        <ele>384.1</ele>
        <time>2015-06-03T12:22:00Z</time>
      </trkpt>
      <trkpt lat="43.58227" lon="6.26253">
        <ele>385.6</ele>
        <time>2015-06-03T12:22:28Z</time>
      </trkpt>
      <trkpt lat="43.58226" lon="6.26241">
        <ele>386.4</ele>
        <time>2015-06-03T12:22:41Z</time>
      </trkpt>
      <trkpt lat="43.58224" lon="6.2623">
        <ele>386</ele>
        <time>2015-06-03T12:22:51Z</time>
      </trkpt>
      <trkpt lat="43.58221" lon="6.26218">
        <ele>385.6</ele>
        <time>2015-06-03T12:23:04Z</time>
      </trkpt>
      <trkpt lat="43.58221" lon="6.26217">
        <ele>385.4</ele>
        <time>2015-06-03T12:23:05Z</time>
      </trkpt>
      <trkpt lat="43.58218" lon="6.26195">
        <ele>382.7</ele>
        <time>2015-06-03T12:23:32Z</time>
      </trkpt>
      <trkpt lat="43.58214" lon="6.26184">
        <ele>381.9</ele>
        <time>2015-06-03T12:23:43Z</time>
      </trkpt>
      <trkpt lat="43.58209" lon="6.26173">
        <ele>380.8</ele>
        <time>2015-06-03T12:23:55Z</time>
      </trkpt>
      <trkpt lat="43.58206" lon="6.26162">
        <ele>380.1</ele>
        <time>2015-06-03T12:24:06Z</time>
      </trkpt>
      <trkpt lat="43.58205" lon="6.26161">
        <ele>380</ele>
        <time>2015-06-03T12:24:07Z</time>
      </trkpt>
      <trkpt lat="43.58205" lon="6.2614">
        <ele>379.6</ele>
        <time>2015-06-03T12:24:23Z</time>
      </trkpt>
      <trkpt lat="43.58209" lon="6.26129">
        <ele>379.1</ele>
        <time>2015-06-03T12:24:32Z</time>
      </trkpt>
      <trkpt lat="43.58207" lon="6.26118">
        <ele>378.3</ele>
        <time>2015-06-03T12:24:43Z</time>
      </trkpt>
      <trkpt lat="43.58207" lon="6.26105">
        <ele>377.6</ele>
        <time>2015-06-03T12:25:09Z</time>
      </trkpt>
      <trkpt lat="43.58207" lon="6.26105">
        <ele>377.5</ele>
        <time>2015-06-03T12:25:10Z</time>
      </trkpt>
      <trkpt lat="43.58204" lon="6.26094">
        <ele>379.7</ele>
        <time>2015-06-03T12:27:39Z</time>
      </trkpt>
      <trkpt lat="43.58196" lon="6.26075">
        <ele>379.3</ele>
        <time>2015-06-03T12:28:05Z</time>
      </trkpt>
      <trkpt lat="43.58192" lon="6.26065">
        <ele>378.9</ele>
        <time>2015-06-03T12:28:12Z</time>
      </trkpt>
      <trkpt lat="43.58189" lon="6.26054">
        <ele>378.3</ele>
        <time>2015-06-03T12:28:21Z</time>
      </trkpt>
      <trkpt lat="43.58186" lon="6.26044">
        <ele>377.6</ele>
        <time>2015-06-03T12:28:28Z</time>
      </trkpt>
      <trkpt lat="43.58183" lon="6.26033">
        <ele>377.5</ele>
        <time>2015-06-03T12:28:36Z</time>
      </trkpt>
      <trkpt lat="43.58186" lon="6.26022">
        <ele>377.7</ele>
        <time>2015-06-03T12:28:46Z</time>
      </trkpt>
      <trkpt lat="43.58186" lon="6.26021">
        <ele>377.6</ele>
        <time>2015-06-03T12:28:47Z</time>
      </trkpt>
      <trkpt lat="43.58191" lon="6.26">
        <ele>376.1</ele>
        <time>2015-06-03T12:29:08Z</time>
      </trkpt>
      <trkpt lat="43.58193" lon="6.25988">
        <ele>377.3</ele>
        <time>2015-06-03T12:29:17Z</time>
      </trkpt>
      <trkpt lat="43.58196" lon="6.25977">
        <ele>377.7</ele>
        <time>2015-06-03T12:29:26Z</time>
      </trkpt>
      <trkpt lat="43.58196" lon="6.25965">
        <ele>375.9</ele>
        <time>2015-06-03T12:29:35Z</time>
      </trkpt>
      <trkpt lat="43.58196" lon="6.25954">
        <ele>376.5</ele>
        <time>2015-06-03T12:29:45Z</time>
      </trkpt>
      <trkpt lat="43.58193" lon="6.25943">
        <ele>376.6</ele>
        <time>2015-06-03T12:29:51Z</time>
      </trkpt>
      <trkpt lat="43.58193" lon="6.25942">
        <ele>376.2</ele>
        <time>2015-06-03T12:29:52Z</time>
      </trkpt>
      <trkpt lat="43.58195" lon="6.2592">
        <ele>376.3</ele>
        <time>2015-06-03T12:30:07Z</time>
      </trkpt>
      <trkpt lat="43.58195" lon="6.25908">
        <ele>375.1</ele>
        <time>2015-06-03T12:30:16Z</time>
      </trkpt>
      <trkpt lat="43.58195" lon="6.25896">
        <ele>375.3</ele>
        <time>2015-06-03T12:30:26Z</time>
      </trkpt>
      <trkpt lat="43.58194" lon="6.25884">
        <ele>374.9</ele>
        <time>2015-06-03T12:30:35Z</time>
      </trkpt>
      <trkpt lat="43.58192" lon="6.25873">
        <ele>373.6</ele>
        <time>2015-06-03T12:30:42Z</time>
      </trkpt>
      <trkpt lat="43.58192" lon="6.25862">
        <ele>374.8</ele>
        <time>2015-06-03T12:30:50Z</time>
      </trkpt>
      <trkpt lat="43.58186" lon="6.25853">
        <ele>374.8</ele>
        <time>2015-06-03T12:31:03Z</time>
      </trkpt>
      <trkpt lat="43.58185" lon="6.25851">
        <ele>374.8</ele>
        <time>2015-06-03T12:31:04Z</time>
      </trkpt>
      <trkpt lat="43.58176" lon="6.25834">
        <ele>377.1</ele>
        <time>2015-06-03T12:31:24Z</time>
      </trkpt>
      <trkpt lat="43.58174" lon="6.25822">
        <ele>377.4</ele>
        <time>2015-06-03T12:31:36Z</time>
      </trkpt>
      <trkpt lat="43.58175" lon="6.25811">
        <ele>378.4</ele>
        <time>2015-06-03T12:31:50Z</time>
      </trkpt>
      <trkpt lat="43.58181" lon="6.25801">
        <ele>379.9</ele>
        <time>2015-06-03T12:32:02Z</time>
      </trkpt>
      <trkpt lat="43.58188" lon="6.25795">
        <ele>381</ele>
        <time>2015-06-03T12:32:14Z</time>
      </trkpt>
      <trkpt lat="43.58189" lon="6.25794">
        <ele>380.8</ele>
        <time>2015-06-03T12:32:15Z</time>
      </trkpt>
      <trkpt lat="43.58201" lon="6.25778">
        <ele>383.5</ele>
        <time>2015-06-03T12:32:40Z</time>
      </trkpt>
      <trkpt lat="43.58205" lon="6.25768">
        <ele>384.4</ele>
        <time>2015-06-03T12:32:52Z</time>
      </trkpt>
      <trkpt lat="43.58207" lon="6.25757">
        <ele>385.7</ele>
        <time>2015-06-03T12:33:03Z</time>
      </trkpt>
      <trkpt lat="43.58209" lon="6.25744">
        <ele>386.7</ele>
        <time>2015-06-03T12:33:15Z</time>
      </trkpt>
      <trkpt lat="43.58209" lon="6.25744">
        <ele>386.9</ele>
        <time>2015-06-03T12:33:16Z</time>
      </trkpt>
      <trkpt lat="43.58199" lon="6.25724">
        <ele>388.4</ele>
        <time>2015-06-03T12:33:35Z</time>
      </trkpt>
      <trkpt lat="43.58194" lon="6.25714">
        <ele>387.5</ele>
        <time>2015-06-03T12:33:49Z</time>
      </trkpt>
      <trkpt lat="43.58192" lon="6.25703">
        <ele>387.2</ele>
        <time>2015-06-03T12:34:00Z</time>
      </trkpt>
      <trkpt lat="43.5819" lon="6.25692">
        <ele>386.6</ele>
        <time>2015-06-03T12:34:08Z</time>
      </trkpt>
      <trkpt lat="43.58189" lon="6.25681">
        <ele>385.5</ele>
        <time>2015-06-03T12:34:18Z</time>
      </trkpt>
      <trkpt lat="43.5819" lon="6.2568">
        <ele>385.6</ele>
        <time>2015-06-03T12:34:19Z</time>
      </trkpt>
      <trkpt lat="43.58192" lon="6.25657">
        <ele>385.9</ele>
        <time>2015-06-03T12:34:39Z</time>
      </trkpt>
      <trkpt lat="43.58195" lon="6.25646">
        <ele>386.5</ele>
        <time>2015-06-03T12:34:50Z</time>
      </trkpt>
      <trkpt lat="43.58199" lon="6.25635">
        <ele>387.5</ele>
        <time>2015-06-03T12:35:00Z</time>
      </trkpt>
      <trkpt lat="43.58203" lon="6.25625">
        <ele>387.4</ele>
        <time>2015-06-03T12:35:12Z</time>
      </trkpt>
      <trkpt lat="43.58208" lon="6.25616">
        <ele>388.9</ele>
        <time>2015-06-03T12:35:24Z</time>
      </trkpt>
      <trkpt lat="43.58209" lon="6.25615">
        <ele>389.3</ele>
        <time>2015-06-03T12:35:25Z</time>
      </trkpt>
      <trkpt lat="43.58218" lon="6.25596">
        <ele>389.9</ele>
        <time>2015-06-03T12:35:41Z</time>
      </trkpt>
      <trkpt lat="43.58223" lon="6.25587">
        <ele>391.1</ele>
        <time>2015-06-03T12:35:53Z</time>
      </trkpt>
      <trkpt lat="43.58227" lon="6.25576">
        <ele>393.2</ele>
        <time>2015-06-03T12:36:08Z</time>
      </trkpt>
      <trkpt lat="43.58228" lon="6.25565">
        <ele>393.9</ele>
        <time>2015-06-03T12:36:17Z</time>
      </trkpt>
      <trkpt lat="43.58229" lon="6.25554">
        <ele>395</ele>
        <time>2015-06-03T12:36:28Z</time>
      </trkpt>
      <trkpt lat="43.58229" lon="6.25552">
        <ele>395.1</ele>
        <time>2015-06-03T12:36:29Z</time>
      </trkpt>
      <trkpt lat="43.58227" lon="6.2553">
        <ele>394.7</ele>
        <time>2015-06-03T12:36:49Z</time>
      </trkpt>
      <trkpt lat="43.58224" lon="6.25519">
        <ele>395.4</ele>
        <time>2015-06-03T12:36:59Z</time>
      </trkpt>
      <trkpt lat="43.58221" lon="6.25507">
        <ele>395.1</ele>
        <time>2015-06-03T12:37:11Z</time>
      </trkpt>
      <trkpt lat="43.58217" lon="6.25496">
        <ele>396</ele>
        <time>2015-06-03T12:37:20Z</time>
      </trkpt>
      <trkpt lat="43.58211" lon="6.25487">
        <ele>396.3</ele>
        <time>2015-06-03T12:37:28Z</time>
      </trkpt>
      <trkpt lat="43.58207" lon="6.25478">
        <ele>396.1</ele>
        <time>2015-06-03T12:37:39Z</time>
      </trkpt>
      <trkpt lat="43.58206" lon="6.25477">
        <ele>396.1</ele>
        <time>2015-06-03T12:37:40Z</time>
      </trkpt>
      <trkpt lat="43.58201" lon="6.25455">
        <ele>397.6</ele>
        <time>2015-06-03T12:37:56Z</time>
      </trkpt>
      <trkpt lat="43.58201" lon="6.25443">
        <ele>397.8</ele>
        <time>2015-06-03T12:38:05Z</time>
      </trkpt>
      <trkpt lat="43.58203" lon="6.25432">
        <ele>399.5</ele>
        <time>2015-06-03T12:38:16Z</time>
      </trkpt>
      <trkpt lat="43.58205" lon="6.25421">
        <ele>400.8</ele>
        <time>2015-06-03T12:38:29Z</time>
      </trkpt>
      <trkpt lat="43.58208" lon="6.25409">
        <ele>402.2</ele>
        <time>2015-06-03T12:38:42Z</time>
      </trkpt>
      <trkpt lat="43.58208" lon="6.25408">
        <ele>402.1</ele>
        <time>2015-06-03T12:38:43Z</time>
      </trkpt>
      <trkpt lat="43.58215" lon="6.25387">
        <ele>407</ele>
        <time>2015-06-03T12:39:14Z</time>
      </trkpt>
      <trkpt lat="43.58219" lon="6.25376">
        <ele>408.8</ele>
        <time>2015-06-03T12:39:32Z</time>
      </trkpt>
      <trkpt lat="43.58224" lon="6.25367">
        <ele>411</ele>
        <time>2015-06-03T12:39:44Z</time>
      </trkpt>
      <trkpt lat="43.58224" lon="6.25366">
        <ele>411</ele>
        <time>2015-06-03T12:39:45Z</time>
      </trkpt>
      <trkpt lat="43.58234" lon="6.25348">
        <ele>414.1</ele>
        <time>2015-06-03T12:40:06Z</time>
      </trkpt>
      <trkpt lat="43.5824" lon="6.25339">
        <ele>415.6</ele>
        <time>2015-06-03T12:40:19Z</time>
      </trkpt>
      <trkpt lat="43.58246" lon="6.2533">
        <ele>417</ele>
        <time>2015-06-03T12:40:29Z</time>
      </trkpt>
      <trkpt lat="43.58251" lon="6.25321">
        <ele>418</ele>
        <time>2015-06-03T12:40:39Z</time>
      </trkpt>
      <trkpt lat="43.58256" lon="6.25311">
        <ele>419.3</ele>
        <time>2015-06-03T12:40:51Z</time>
      </trkpt>
      <trkpt lat="43.58256" lon="6.2531">
        <ele>419.7</ele>
        <time>2015-06-03T12:40:52Z</time>
      </trkpt>
      <trkpt lat="43.58268" lon="6.25295">
        <ele>422.8</ele>
        <time>2015-06-03T12:41:16Z</time>
      </trkpt>
      <trkpt lat="43.58271" lon="6.25284">
        <ele>423.7</ele>
        <time>2015-06-03T12:41:29Z</time>
      </trkpt>
      <trkpt lat="43.58276" lon="6.25274">
        <ele>425.7</ele>
        <time>2015-06-03T12:41:41Z</time>
      </trkpt>
      <trkpt lat="43.58283" lon="6.25267">
        <ele>427.4</ele>
        <time>2015-06-03T12:41:55Z</time>
      </trkpt>
      <trkpt lat="43.58284" lon="6.25266">
        <ele>427.5</ele>
        <time>2015-06-03T12:41:56Z</time>
      </trkpt>
      <trkpt lat="43.583" lon="6.25258">
        <ele>433.3</ele>
        <time>2015-06-03T12:42:30Z</time>
      </trkpt>
      <trkpt lat="43.58309" lon="6.25259">
        <ele>434.5</ele>
        <time>2015-06-03T12:42:47Z</time>
      </trkpt>
      <trkpt lat="43.58317" lon="6.2526">
        <ele>436.9</ele>
        <time>2015-06-03T12:43:03Z</time>
      </trkpt>
      <trkpt lat="43.58318" lon="6.25261">
        <ele>437</ele>
        <time>2015-06-03T12:43:04Z</time>
      </trkpt>
      <trkpt lat="43.58334" lon="6.25253">
        <ele>440.7</ele>
        <time>2015-06-03T12:43:44Z</time>
      </trkpt>
      <trkpt lat="43.58342" lon="6.2525">
        <ele>442.2</ele>
        <time>2015-06-03T12:43:55Z</time>
      </trkpt>
      <trkpt lat="43.58351" lon="6.25248">
        <ele>444.2</ele>
        <time>2015-06-03T12:44:09Z</time>
      </trkpt>
      <trkpt lat="43.58352" lon="6.25248">
        <ele>444.5</ele>
        <time>2015-06-03T12:44:10Z</time>
      </trkpt>
      <trkpt lat="43.58367" lon="6.2524">
        <ele>446.4</ele>
        <time>2015-06-03T12:44:28Z</time>
      </trkpt>
      <trkpt lat="43.58376" lon="6.25237">
        <ele>448.4</ele>
        <time>2015-06-03T12:44:41Z</time>
      </trkpt>
      <trkpt lat="43.58384" lon="6.25234">
        <ele>449.3</ele>
        <time>2015-06-03T12:44:51Z</time>
      </trkpt>
      <trkpt lat="43.58392" lon="6.25234">
        <ele>451.2</ele>
        <time>2015-06-03T12:45:04Z</time>
      </trkpt>
      <trkpt lat="43.584" lon="6.25238">
        <ele>452.4</ele>
        <time>2015-06-03T12:45:15Z</time>
      </trkpt>
      <trkpt lat="43.58401" lon="6.25238">
        <ele>452.2</ele>
        <time>2015-06-03T12:45:16Z</time>
      </trkpt>
      <trkpt lat="43.58418" lon="6.2524">
        <ele>453</ele>
        <time>2015-06-03T12:45:36Z</time>
      </trkpt>
      <trkpt lat="43.58426" lon="6.25244">
        <ele>454.2</ele>
        <time>2015-06-03T12:45:48Z</time>
      </trkpt>
      <trkpt lat="43.58435" lon="6.25245">
        <ele>455.3</ele>
        <time>2015-06-03T12:46:00Z</time>
      </trkpt>
      <trkpt lat="43.58444" lon="6.25242">
        <ele>457.7</ele>
        <time>2015-06-03T12:46:14Z</time>
      </trkpt>
      <trkpt lat="43.58452" lon="6.2524">
        <ele>458</ele>
        <time>2015-06-03T12:46:25Z</time>
      </trkpt>
      <trkpt lat="43.58453" lon="6.2524">
        <ele>457.7</ele>
        <time>2015-06-03T12:46:26Z</time>
      </trkpt>
      <trkpt lat="43.58469" lon="6.25234">
        <ele>460.1</ele>
        <time>2015-06-03T12:46:44Z</time>
      </trkpt>
      <trkpt lat="43.58476" lon="6.25225">
        <ele>459.9</ele>
        <time>2015-06-03T12:47:03Z</time>
      </trkpt>
      <trkpt lat="43.58484" lon="6.25222">
        <ele>461.4</ele>
        <time>2015-06-03T12:49:34Z</time>
      </trkpt>
      <trkpt lat="43.58485" lon="6.25222">
        <ele>461.3</ele>
        <time>2015-06-03T12:49:35Z</time>
      </trkpt>
      <trkpt lat="43.58493" lon="6.25228">
        <ele>461.5</ele>
        <time>2015-06-03T12:53:07Z</time>
      </trkpt>
      <trkpt lat="43.5851" lon="6.25229">
        <ele>460.3</ele>
        <time>2015-06-03T12:53:29Z</time>
      </trkpt>
      <trkpt lat="43.58517" lon="6.25235">
        <ele>459.4</ele>
        <time>2015-06-03T12:54:03Z</time>
      </trkpt>
      <trkpt lat="43.58522" lon="6.25245">
        <ele>457.2</ele>
        <time>2015-06-03T12:54:20Z</time>
      </trkpt>
      <trkpt lat="43.58523" lon="6.25246">
        <ele>457.2</ele>
        <time>2015-06-03T12:54:21Z</time>
      </trkpt>
      <trkpt lat="43.58527" lon="6.25269">
        <ele>456.2</ele>
        <time>2015-06-03T12:54:45Z</time>
      </trkpt>
      <trkpt lat="43.58527" lon="6.25281">
        <ele>455.3</ele>
        <time>2015-06-03T12:54:56Z</time>
      </trkpt>
      <trkpt lat="43.5853" lon="6.25292">
        <ele>455.4</ele>
        <time>2015-06-03T12:55:05Z</time>
      </trkpt>
      <trkpt lat="43.5853" lon="6.25304">
        <ele>455</ele>
        <time>2015-06-03T12:55:12Z</time>
      </trkpt>
      <trkpt lat="43.58536" lon="6.25313">
        <ele>454.7</ele>
        <time>2015-06-03T12:55:18Z</time>
      </trkpt>
      <trkpt lat="43.58542" lon="6.2532">
        <ele>454.5</ele>
        <time>2015-06-03T12:55:23Z</time>
      </trkpt>
      <trkpt lat="43.58543" lon="6.25321">
        <ele>454.8</ele>
        <time>2015-06-03T12:55:24Z</time>
      </trkpt>
      <trkpt lat="43.58559" lon="6.25326">
        <ele>455.8</ele>
        <time>2015-06-03T12:55:39Z</time>
      </trkpt>
      <trkpt lat="43.58567" lon="6.25329">
        <ele>455.7</ele>
        <time>2015-06-03T12:55:48Z</time>
      </trkpt>
      <trkpt lat="43.58575" lon="6.25332">
        <ele>456.3</ele>
        <time>2015-06-03T12:55:57Z</time>
      </trkpt>
      <trkpt lat="43.58582" lon="6.25338">
        <ele>457.2</ele>
        <time>2015-06-03T12:56:06Z</time>
      </trkpt>
      <trkpt lat="43.58589" lon="6.25346">
        <ele>457.1</ele>
        <time>2015-06-03T12:56:17Z</time>
      </trkpt>
      <trkpt lat="43.58594" lon="6.25356">
        <ele>457.3</ele>
        <time>2015-06-03T12:56:29Z</time>
      </trkpt>
      <trkpt lat="43.58594" lon="6.25357">
        <ele>457.5</ele>
        <time>2015-06-03T12:56:30Z</time>
      </trkpt>
      <trkpt lat="43.58606" lon="6.25372">
        <ele>458.7</ele>
        <time>2015-06-03T12:56:47Z</time>
      </trkpt>
      <trkpt lat="43.58612" lon="6.2538">
        <ele>458.7</ele>
        <time>2015-06-03T12:56:54Z</time>
      </trkpt>
      <trkpt lat="43.58613" lon="6.25392">
        <ele>459</ele>
        <time>2015-06-03T12:57:05Z</time>
      </trkpt>
      <trkpt lat="43.58613" lon="6.25405">
        <ele>460.4</ele>
        <time>2015-06-03T12:57:16Z</time>
      </trkpt>
      <trkpt lat="43.5861" lon="6.25415">
        <ele>460.9</ele>
        <time>2015-06-03T12:57:26Z</time>
      </trkpt>
      <trkpt lat="43.58607" lon="6.25426">
        <ele>461.4</ele>
        <time>2015-06-03T12:57:34Z</time>
      </trkpt>
      <trkpt lat="43.58607" lon="6.25428">
        <ele>461</ele>
        <time>2015-06-03T12:57:35Z</time>
      </trkpt>
      <trkpt lat="43.5861" lon="6.25449">
        <ele>461.1</ele>
        <time>2015-06-03T12:57:50Z</time>
      </trkpt>
      <trkpt lat="43.58614" lon="6.2546">
        <ele>460.8</ele>
        <time>2015-06-03T12:57:58Z</time>
      </trkpt>
      <trkpt lat="43.58617" lon="6.2547">
        <ele>460</ele>
        <time>2015-06-03T12:58:07Z</time>
      </trkpt>
      <trkpt lat="43.5862" lon="6.25481">
        <ele>460.5</ele>
        <time>2015-06-03T12:58:15Z</time>
      </trkpt>
      <trkpt lat="43.58622" lon="6.25492">
        <ele>460</ele>
        <time>2015-06-03T12:58:23Z</time>
      </trkpt>
      <trkpt lat="43.58627" lon="6.25503">
        <ele>460</ele>
        <time>2015-06-03T12:58:31Z</time>
      </trkpt>
      <trkpt lat="43.58628" lon="6.25513">
        <ele>460.6</ele>
        <time>2015-06-03T12:58:39Z</time>
      </trkpt>
      <trkpt lat="43.58628" lon="6.25515">
        <ele>460</ele>
        <time>2015-06-03T12:58:40Z</time>
      </trkpt>
      <trkpt lat="43.58629" lon="6.25537">
        <ele>458.8</ele>
        <time>2015-06-03T12:58:55Z</time>
      </trkpt>
      <trkpt lat="43.58628" lon="6.25548">
        <ele>458.1</ele>
        <time>2015-06-03T12:59:03Z</time>
      </trkpt>
      <trkpt lat="43.58628" lon="6.2556">
        <ele>458.2</ele>
        <time>2015-06-03T12:59:13Z</time>
      </trkpt>
      <trkpt lat="43.58626" lon="6.25572">
        <ele>458.3</ele>
        <time>2015-06-03T12:59:22Z</time>
      </trkpt>
      <trkpt lat="43.58623" lon="6.25583">
        <ele>458.7</ele>
        <time>2015-06-03T12:59:31Z</time>
      </trkpt>
      <trkpt lat="43.58618" lon="6.25592">
        <ele>457.9</ele>
        <time>2015-06-03T12:59:40Z</time>
      </trkpt>
      <trkpt lat="43.58617" lon="6.25594">
        <ele>458.3</ele>
        <time>2015-06-03T12:59:41Z</time>
      </trkpt>
      <trkpt lat="43.58609" lon="6.25612">
        <ele>458.9</ele>
        <time>2015-06-03T12:59:54Z</time>
      </trkpt>
      <trkpt lat="43.58607" lon="6.25623">
        <ele>458.9</ele>
        <time>2015-06-03T13:00:03Z</time>
      </trkpt>
      <trkpt lat="43.58603" lon="6.25633">
        <ele>459.5</ele>
        <time>2015-06-03T13:00:11Z</time>
      </trkpt>
      <trkpt lat="43.58601" lon="6.25645">
        <ele>459.5</ele>
        <time>2015-06-03T13:00:20Z</time>
      </trkpt>
      <trkpt lat="43.586" lon="6.25655">
        <ele>458.7</ele>
        <time>2015-06-03T13:00:27Z</time>
      </trkpt>
      <trkpt lat="43.586" lon="6.25667">
        <ele>459.3</ele>
        <time>2015-06-03T13:00:34Z</time>
      </trkpt>
      <trkpt lat="43.58602" lon="6.25677">
        <ele>459.3</ele>
        <time>2015-06-03T13:00:40Z</time>
      </trkpt>
      <trkpt lat="43.58607" lon="6.25688">
        <ele>459.6</ele>
        <time>2015-06-03T13:00:47Z</time>
      </trkpt>
      <trkpt lat="43.58607" lon="6.25689">
        <ele>460</ele>
        <time>2015-06-03T13:00:48Z</time>
      </trkpt>
      <trkpt lat="43.58617" lon="6.25707">
        <ele>460.5</ele>
        <time>2015-06-03T13:01:02Z</time>
      </trkpt>
      <trkpt lat="43.58622" lon="6.25717">
        <ele>460.6</ele>
        <time>2015-06-03T13:01:10Z</time>
      </trkpt>
      <trkpt lat="43.58628" lon="6.25724">
        <ele>461.8</ele>
        <time>2015-06-03T13:01:17Z</time>
      </trkpt>
      <trkpt lat="43.58635" lon="6.2573">
        <ele>461.6</ele>
        <time>2015-06-03T13:01:25Z</time>
      </trkpt>
      <trkpt lat="43.58643" lon="6.25735">
        <ele>461.5</ele>
        <time>2015-06-03T13:01:34Z</time>
      </trkpt>
      <trkpt lat="43.5865" lon="6.25742">
        <ele>461.7</ele>
        <time>2015-06-03T13:01:43Z</time>
      </trkpt>
      <trkpt lat="43.58656" lon="6.25751">
        <ele>461.4</ele>
        <time>2015-06-03T13:01:51Z</time>
      </trkpt>
      <trkpt lat="43.58657" lon="6.25752">
        <ele>461.1</ele>
        <time>2015-06-03T13:01:52Z</time>
      </trkpt>
      <trkpt lat="43.58666" lon="6.2577">
        <ele>461.8</ele>
        <time>2015-06-03T13:02:09Z</time>
      </trkpt>
      <trkpt lat="43.58672" lon="6.25778">
        <ele>461.1</ele>
        <time>2015-06-03T13:02:16Z</time>
      </trkpt>
      <trkpt lat="43.58676" lon="6.25789">
        <ele>461.1</ele>
        <time>2015-06-03T13:02:26Z</time>
      </trkpt>
      <trkpt lat="43.58677" lon="6.25801">
        <ele>461.2</ele>
        <time>2015-06-03T13:02:36Z</time>
      </trkpt>
      <trkpt lat="43.5868" lon="6.25812">
        <ele>459.9</ele>
        <time>2015-06-03T13:02:46Z</time>
      </trkpt>
      <trkpt lat="43.58684" lon="6.25821">
        <ele>460.8</ele>
        <time>2015-06-03T13:02:54Z</time>
      </trkpt>
      <trkpt lat="43.58685" lon="6.25823">
        <ele>460.7</ele>
        <time>2015-06-03T13:02:55Z</time>
      </trkpt>
      <trkpt lat="43.58696" lon="6.25839">
        <ele>460.6</ele>
        <time>2015-06-03T13:03:08Z</time>
      </trkpt>
      <trkpt lat="43.58698" lon="6.2585">
        <ele>461.4</ele>
        <time>2015-06-03T13:03:16Z</time>
      </trkpt>
      <trkpt lat="43.58698" lon="6.25862">
        <ele>462.4</ele>
        <time>2015-06-03T13:03:26Z</time>
      </trkpt>
      <trkpt lat="43.58697" lon="6.25873">
        <ele>461.9</ele>
        <time>2015-06-03T13:03:34Z</time>
      </trkpt>
      <trkpt lat="43.58701" lon="6.25883">
        <ele>462.6</ele>
        <time>2015-06-03T13:03:41Z</time>
      </trkpt>
      <trkpt lat="43.58708" lon="6.25889">
        <ele>463.3</ele>
        <time>2015-06-03T13:03:47Z</time>
      </trkpt>
      <trkpt lat="43.58715" lon="6.25894">
        <ele>463.4</ele>
        <time>2015-06-03T13:03:55Z</time>
      </trkpt>
      <trkpt lat="43.58716" lon="6.25894">
        <ele>463.3</ele>
        <time>2015-06-03T13:03:56Z</time>
      </trkpt>
      <trkpt lat="43.58731" lon="6.25903">
        <ele>463.2</ele>
        <time>2015-06-03T13:04:14Z</time>
      </trkpt>
      <trkpt lat="43.58737" lon="6.25912">
        <ele>462.6</ele>
        <time>2015-06-03T13:04:24Z</time>
      </trkpt>
      <trkpt lat="43.58742" lon="6.25921">
        <ele>462.6</ele>
        <time>2015-06-03T13:04:35Z</time>
      </trkpt>
      <trkpt lat="43.58748" lon="6.25929">
        <ele>462.9</ele>
        <time>2015-06-03T13:04:44Z</time>
      </trkpt>
      <trkpt lat="43.58752" lon="6.25939">
        <ele>461.4</ele>
        <time>2015-06-03T13:04:52Z</time>
      </trkpt>
      <trkpt lat="43.58759" lon="6.25946">
        <ele>461.3</ele>
        <time>2015-06-03T13:05:00Z</time>
      </trkpt>
      <trkpt lat="43.5876" lon="6.25946">
        <ele>461.4</ele>
        <time>2015-06-03T13:05:01Z</time>
      </trkpt>
      <trkpt lat="43.58775" lon="6.25955">
        <ele>461</ele>
        <time>2015-06-03T13:05:18Z</time>
      </trkpt>
      <trkpt lat="43.58782" lon="6.25961">
        <ele>460.9</ele>
        <time>2015-06-03T13:05:28Z</time>
      </trkpt>
      <trkpt lat="43.58788" lon="6.2597">
        <ele>461.8</ele>
        <time>2015-06-03T13:05:39Z</time>
      </trkpt>
      <trkpt lat="43.58796" lon="6.25972">
        <ele>461.7</ele>
        <time>2015-06-03T13:05:46Z</time>
      </trkpt>
      <trkpt lat="43.58805" lon="6.25972">
        <ele>462.4</ele>
        <time>2015-06-03T13:05:54Z</time>
      </trkpt>
      <trkpt lat="43.58813" lon="6.25971">
        <ele>462.6</ele>
        <time>2015-06-03T13:06:02Z</time>
      </trkpt>
      <trkpt lat="43.58815" lon="6.25971">
        <ele>462.8</ele>
        <time>2015-06-03T13:06:03Z</time>
      </trkpt>
      <trkpt lat="43.58828" lon="6.2598">
        <ele>463.4</ele>
        <time>2015-06-03T13:06:17Z</time>
      </trkpt>
      <trkpt lat="43.58836" lon="6.25984">
        <ele>464.1</ele>
        <time>2015-06-03T13:06:26Z</time>
      </trkpt>
      <trkpt lat="43.58845" lon="6.25987">
        <ele>463.6</ele>
        <time>2015-06-03T13:06:36Z</time>
      </trkpt>
      <trkpt lat="43.58852" lon="6.25986">
        <ele>464.6</ele>
        <time>2015-06-03T13:06:46Z</time>
      </trkpt>
      <trkpt lat="43.58861" lon="6.25985">
        <ele>466.1</ele>
        <time>2015-06-03T13:06:54Z</time>
      </trkpt>
      <trkpt lat="43.58869" lon="6.25988">
        <ele>466.1</ele>
        <time>2015-06-03T13:07:03Z</time>
      </trkpt>
      <trkpt lat="43.58869" lon="6.25989">
        <ele>466.1</ele>
        <time>2015-06-03T13:07:04Z</time>
      </trkpt>
      <trkpt lat="43.58882" lon="6.26003">
        <ele>466.2</ele>
        <time>2015-06-03T13:07:27Z</time>
      </trkpt>
      <trkpt lat="43.58889" lon="6.26009">
        <ele>466.4</ele>
        <time>2015-06-03T13:07:35Z</time>
      </trkpt>
      <trkpt lat="43.58898" lon="6.26012">
        <ele>467</ele>
        <time>2015-06-03T13:07:43Z</time>
      </trkpt>
      <trkpt lat="43.58907" lon="6.26013">
        <ele>467.8</ele>
        <time>2015-06-03T13:07:51Z</time>
      </trkpt>
      <trkpt lat="43.58915" lon="6.26016">
        <ele>467.9</ele>
        <time>2015-06-03T13:07:59Z</time>
      </trkpt>
      <trkpt lat="43.58922" lon="6.26023">
        <ele>468.6</ele>
        <time>2015-06-03T13:08:08Z</time>
      </trkpt>
      <trkpt lat="43.58923" lon="6.26023">
        <ele>468.9</ele>
        <time>2015-06-03T13:08:09Z</time>
      </trkpt>
      <trkpt lat="43.58936" lon="6.26036">
        <ele>469.8</ele>
        <time>2015-06-03T13:08:27Z</time>
      </trkpt>
      <trkpt lat="43.58942" lon="6.26044">
        <ele>470.5</ele>
        <time>2015-06-03T13:08:39Z</time>
      </trkpt>
      <trkpt lat="43.58945" lon="6.26056">
        <ele>471.5</ele>
        <time>2015-06-03T13:08:50Z</time>
      </trkpt>
      <trkpt lat="43.58949" lon="6.26066">
        <ele>472.1</ele>
        <time>2015-06-03T13:08:58Z</time>
      </trkpt>
      <trkpt lat="43.58951" lon="6.26077">
        <ele>472.2</ele>
        <time>2015-06-03T13:09:06Z</time>
      </trkpt>
      <trkpt lat="43.58957" lon="6.26087">
        <ele>471.9</ele>
        <time>2015-06-03T13:09:14Z</time>
      </trkpt>
      <trkpt lat="43.58958" lon="6.26088">
        <ele>472</ele>
        <time>2015-06-03T13:09:15Z</time>
      </trkpt>
      <trkpt lat="43.5897" lon="6.261">
        <ele>472.1</ele>
        <time>2015-06-03T13:09:29Z</time>
      </trkpt>
      <trkpt lat="43.58978" lon="6.26107">
        <ele>472.7</ele>
        <time>2015-06-03T13:09:37Z</time>
      </trkpt>
      <trkpt lat="43.58985" lon="6.26114">
        <ele>472.4</ele>
        <time>2015-06-03T13:09:45Z</time>
      </trkpt>
      <trkpt lat="43.58993" lon="6.2612">
        <ele>472.8</ele>
        <time>2015-06-03T13:09:53Z</time>
      </trkpt>
      <trkpt lat="43.59001" lon="6.26124">
        <ele>472.9</ele>
        <time>2015-06-03T13:10:02Z</time>
      </trkpt>
      <trkpt lat="43.59008" lon="6.26132">
        <ele>472.4</ele>
        <time>2015-06-03T13:10:12Z</time>
      </trkpt>
      <trkpt lat="43.59005" lon="6.26143">
        <ele>471.5</ele>
        <time>2015-06-03T13:10:24Z</time>
      </trkpt>
      <trkpt lat="43.59005" lon="6.26144">
        <ele>471.5</ele>
        <time>2015-06-03T13:10:25Z</time>
      </trkpt>
      <trkpt lat="43.58996" lon="6.26163">
        <ele>471.4</ele>
        <time>2015-06-03T13:10:44Z</time>
      </trkpt>
      <trkpt lat="43.5899" lon="6.26173">
        <ele>471.4</ele>
        <time>2015-06-03T13:10:54Z</time>
      </trkpt>
      <trkpt lat="43.58986" lon="6.26182">
        <ele>470.6</ele>
        <time>2015-06-03T13:11:04Z</time>
      </trkpt>
      <trkpt lat="43.58981" lon="6.26191">
        <ele>469.4</ele>
        <time>2015-06-03T13:11:21Z</time>
      </trkpt>
      <trkpt lat="43.58975" lon="6.262">
        <ele>468.3</ele>
        <time>2015-06-03T13:11:32Z</time>
      </trkpt>
      <trkpt lat="43.58974" lon="6.262">
        <ele>468.3</ele>
        <time>2015-06-03T13:11:33Z</time>
      </trkpt>
      <trkpt lat="43.58965" lon="6.26218">
        <ele>467.9</ele>
        <time>2015-06-03T13:11:50Z</time>
      </trkpt>
      <trkpt lat="43.58961" lon="6.26228">
        <ele>466.7</ele>
        <time>2015-06-03T13:11:58Z</time>
      </trkpt>
      <trkpt lat="43.58959" lon="6.2624">
        <ele>467.2</ele>
        <time>2015-06-03T13:12:06Z</time>
      </trkpt>
      <trkpt lat="43.58965" lon="6.26248">
        <ele>467.2</ele>
        <time>2015-06-03T13:12:17Z</time>
      </trkpt>
      <trkpt lat="43.58972" lon="6.26254">
        <ele>468.3</ele>
        <time>2015-06-03T13:12:26Z</time>
      </trkpt>
      <trkpt lat="43.5898" lon="6.26254">
        <ele>468.9</ele>
        <time>2015-06-03T13:12:36Z</time>
      </trkpt>
      <trkpt lat="43.58981" lon="6.26254">
        <ele>468.9</ele>
        <time>2015-06-03T13:12:37Z</time>
      </trkpt>
      <trkpt lat="43.58994" lon="6.26265">
        <ele>469.1</ele>
        <time>2015-06-03T13:12:55Z</time>
      </trkpt>
      <trkpt lat="43.58995" lon="6.26277">
        <ele>468.9</ele>
        <time>2015-06-03T13:13:05Z</time>
      </trkpt>
      <trkpt lat="43.58995" lon="6.26289">
        <ele>468.3</ele>
        <time>2015-06-03T13:13:15Z</time>
      </trkpt>
      <trkpt lat="43.58998" lon="6.26301">
        <ele>468.2</ele>
        <time>2015-06-03T13:13:24Z</time>
      </trkpt>
      <trkpt lat="43.59003" lon="6.2631">
        <ele>468.6</ele>
        <time>2015-06-03T13:13:31Z</time>
      </trkpt>
      <trkpt lat="43.59008" lon="6.26319">
        <ele>468.3</ele>
        <time>2015-06-03T13:13:39Z</time>
      </trkpt>
      <trkpt lat="43.59009" lon="6.2632">
        <ele>468.3</ele>
        <time>2015-06-03T13:13:40Z</time>
      </trkpt>
      <trkpt lat="43.59022" lon="6.26331">
        <ele>468.5</ele>
        <time>2015-06-03T13:13:56Z</time>
      </trkpt>
      <trkpt lat="43.59029" lon="6.26336">
        <ele>468.7</ele>
        <time>2015-06-03T13:14:04Z</time>
      </trkpt>
      <trkpt lat="43.59038" lon="6.26338">
        <ele>468.6</ele>
        <time>2015-06-03T13:14:12Z</time>
      </trkpt>
      <trkpt lat="43.59046" lon="6.2634">
        <ele>469.4</ele>
        <time>2015-06-03T13:14:21Z</time>
      </trkpt>
      <trkpt lat="43.59047" lon="6.26352">
        <ele>468.4</ele>
        <time>2015-06-03T13:14:37Z</time>
      </trkpt>
      <trkpt lat="43.59041" lon="6.2636">
        <ele>468.6</ele>
        <time>2015-06-03T13:14:49Z</time>
      </trkpt>
      <trkpt lat="43.59041" lon="6.26361">
        <ele>468.6</ele>
        <time>2015-06-03T13:14:50Z</time>
      </trkpt>
      <trkpt lat="43.59042" lon="6.26384">
        <ele>469.3</ele>
        <time>2015-06-03T13:15:09Z</time>
      </trkpt>
      <trkpt lat="43.59042" lon="6.26396">
        <ele>470.3</ele>
        <time>2015-06-03T13:15:19Z</time>
      </trkpt>
      <trkpt lat="43.59042" lon="6.26408">
        <ele>470.5</ele>
        <time>2015-06-03T13:15:30Z</time>
      </trkpt>
      <trkpt lat="43.59042" lon="6.2642">
        <ele>470.8</ele>
        <time>2015-06-03T13:15:42Z</time>
      </trkpt>
      <trkpt lat="43.59044" lon="6.26431">
        <ele>471.5</ele>
        <time>2015-06-03T13:15:52Z</time>
      </trkpt>
      <trkpt lat="43.59044" lon="6.26432">
        <ele>471.6</ele>
        <time>2015-06-03T13:15:53Z</time>
      </trkpt>
      <trkpt lat="43.59053" lon="6.26449">
        <ele>472.1</ele>
        <time>2015-06-03T13:16:09Z</time>
      </trkpt>
      <trkpt lat="43.59061" lon="6.26455">
        <ele>474.4</ele>
        <time>2015-06-03T13:16:20Z</time>
      </trkpt>
      <trkpt lat="43.59066" lon="6.26464">
        <ele>473.9</ele>
        <time>2015-06-03T13:16:30Z</time>
      </trkpt>
      <trkpt lat="43.5907" lon="6.26475">
        <ele>474.5</ele>
        <time>2015-06-03T13:16:39Z</time>
      </trkpt>
      <trkpt lat="43.59073" lon="6.26486">
        <ele>475.5</ele>
        <time>2015-06-03T13:16:49Z</time>
      </trkpt>
      <trkpt lat="43.59078" lon="6.26496">
        <ele>475.3</ele>
        <time>2015-06-03T13:16:58Z</time>
      </trkpt>
      <trkpt lat="43.59079" lon="6.26497">
        <ele>475.9</ele>
        <time>2015-06-03T13:16:59Z</time>
      </trkpt>
      <trkpt lat="43.5909" lon="6.26513">
        <ele>476.9</ele>
        <time>2015-06-03T13:17:14Z</time>
      </trkpt>
      <trkpt lat="43.59095" lon="6.26521">
        <ele>477.7</ele>
        <time>2015-06-03T13:17:22Z</time>
      </trkpt>
      <trkpt lat="43.59099" lon="6.26532">
        <ele>478.8</ele>
        <time>2015-06-03T13:17:31Z</time>
      </trkpt>
      <trkpt lat="43.59102" lon="6.26542">
        <ele>478.6</ele>
        <time>2015-06-03T13:17:39Z</time>
      </trkpt>
      <trkpt lat="43.59106" lon="6.26553">
        <ele>479</ele>
        <time>2015-06-03T13:17:48Z</time>
      </trkpt>
      <trkpt lat="43.5911" lon="6.26563">
        <ele>479.5</ele>
        <time>2015-06-03T13:17:56Z</time>
      </trkpt>
      <trkpt lat="43.59115" lon="6.26572">
        <ele>480.5</ele>
        <time>2015-06-03T13:18:05Z</time>
      </trkpt>
      <trkpt lat="43.59116" lon="6.26574">
        <ele>480.8</ele>
        <time>2015-06-03T13:18:06Z</time>
      </trkpt>
      <trkpt lat="43.59119" lon="6.26594">
        <ele>480.9</ele>
        <time>2015-06-03T13:18:22Z</time>
      </trkpt>
      <trkpt lat="43.59119" lon="6.26606">
        <ele>480.9</ele>
        <time>2015-06-03T13:18:31Z</time>
      </trkpt>
      <trkpt lat="43.59119" lon="6.26618">
        <ele>481.7</ele>
        <time>2015-06-03T13:18:40Z</time>
      </trkpt>
      <trkpt lat="43.5912" lon="6.2663">
        <ele>481.4</ele>
        <time>2015-06-03T13:18:48Z</time>
      </trkpt>
      <trkpt lat="43.59121" lon="6.26642">
        <ele>481.3</ele>
        <time>2015-06-03T13:18:57Z</time>
      </trkpt>
      <trkpt lat="43.59123" lon="6.26654">
        <ele>482.5</ele>
        <time>2015-06-03T13:19:07Z</time>
      </trkpt>
      <trkpt lat="43.59124" lon="6.26655">
        <ele>482.7</ele>
        <time>2015-06-03T13:19:08Z</time>
      </trkpt>
      <trkpt lat="43.59125" lon="6.26677">
        <ele>483.3</ele>
        <time>2015-06-03T13:19:24Z</time>
      </trkpt>
      <trkpt lat="43.59129" lon="6.26687">
        <ele>484.4</ele>
        <time>2015-06-03T13:19:34Z</time>
      </trkpt>
      <trkpt lat="43.59136" lon="6.26695">
        <ele>485.2</ele>
        <time>2015-06-03T13:19:44Z</time>
      </trkpt>
      <trkpt lat="43.59142" lon="6.26703">
        <ele>486.3</ele>
        <time>2015-06-03T13:19:55Z</time>
      </trkpt>
      <trkpt lat="43.59149" lon="6.26711">
        <ele>486.6</ele>
        <time>2015-06-03T13:20:05Z</time>
      </trkpt>
      <trkpt lat="43.59152" lon="6.26722">
        <ele>488.6</ele>
        <time>2015-06-03T13:20:17Z</time>
      </trkpt>
      <trkpt lat="43.59152" lon="6.26723">
        <ele>488.7</ele>
        <time>2015-06-03T13:20:18Z</time>
      </trkpt>
      <trkpt lat="43.59154" lon="6.26745">
        <ele>490.3</ele>
        <time>2015-06-03T13:20:37Z</time>
      </trkpt>
      <trkpt lat="43.59158" lon="6.26755">
        <ele>491</ele>
        <time>2015-06-03T13:20:47Z</time>
      </trkpt>
      <trkpt lat="43.59163" lon="6.26764">
        <ele>492.4</ele>
        <time>2015-06-03T13:20:58Z</time>
      </trkpt>
      <trkpt lat="43.59167" lon="6.26776">
        <ele>492.1</ele>
        <time>2015-06-03T13:21:08Z</time>
      </trkpt>
      <trkpt lat="43.5917" lon="6.26787">
        <ele>492.8</ele>
        <time>2015-06-03T13:21:17Z</time>
      </trkpt>
      <trkpt lat="43.59174" lon="6.26798">
        <ele>494.3</ele>
        <time>2015-06-03T13:21:27Z</time>
      </trkpt>
      <trkpt lat="43.59174" lon="6.26799">
        <ele>494.6</ele>
        <time>2015-06-03T13:21:28Z</time>
      </trkpt>
      <trkpt lat="43.59181" lon="6.26818">
        <ele>494.2</ele>
        <time>2015-06-03T13:21:43Z</time>
      </trkpt>
      <trkpt lat="43.59186" lon="6.26829">
        <ele>494.2</ele>
        <time>2015-06-03T13:21:52Z</time>
      </trkpt>
      <trkpt lat="43.59191" lon="6.26837">
        <ele>494.8</ele>
        <time>2015-06-03T13:22:00Z</time>
      </trkpt>
      <trkpt lat="43.59199" lon="6.26842">
        <ele>494.8</ele>
        <time>2015-06-03T13:22:09Z</time>
      </trkpt>
      <trkpt lat="43.59206" lon="6.26845">
        <ele>494.2</ele>
        <time>2015-06-03T13:22:16Z</time>
      </trkpt>
      <trkpt lat="43.59214" lon="6.26848">
        <ele>494.1</ele>
        <time>2015-06-03T13:22:23Z</time>
      </trkpt>
      <trkpt lat="43.59222" lon="6.26852">
        <ele>493.3</ele>
        <time>2015-06-03T13:22:30Z</time>
      </trkpt>
      <trkpt lat="43.59223" lon="6.26852">
        <ele>493.2</ele>
        <time>2015-06-03T13:22:31Z</time>
      </trkpt>
      <trkpt lat="43.59237" lon="6.26864">
        <ele>492.3</ele>
        <time>2015-06-03T13:22:48Z</time>
      </trkpt>
      <trkpt lat="43.59239" lon="6.26875">
        <ele>493.2</ele>
        <time>2015-06-03T13:22:59Z</time>
      </trkpt>
      <trkpt lat="43.59235" lon="6.26885">
        <ele>496.1</ele>
        <time>2015-06-03T13:23:12Z</time>
      </trkpt>
      <trkpt lat="43.5923" lon="6.26895">
        <ele>495.5</ele>
        <time>2015-06-03T13:23:22Z</time>
      </trkpt>
      <trkpt lat="43.59227" lon="6.26906">
        <ele>495.9</ele>
        <time>2015-06-03T13:23:31Z</time>
      </trkpt>
      <trkpt lat="43.59227" lon="6.26907">
        <ele>495.9</ele>
        <time>2015-06-03T13:23:32Z</time>
      </trkpt>
      <trkpt lat="43.59217" lon="6.26924">
        <ele>495.3</ele>
        <time>2015-06-03T13:23:48Z</time>
      </trkpt>
      <trkpt lat="43.5921" lon="6.26931">
        <ele>496.1</ele>
        <time>2015-06-03T13:23:57Z</time>
      </trkpt>
      <trkpt lat="43.59203" lon="6.26938">
        <ele>497.2</ele>
        <time>2015-06-03T13:24:08Z</time>
      </trkpt>
      <trkpt lat="43.59197" lon="6.26944">
        <ele>498.5</ele>
        <time>2015-06-03T13:24:16Z</time>
      </trkpt>
      <trkpt lat="43.5919" lon="6.26952">
        <ele>499.7</ele>
        <time>2015-06-03T13:24:25Z</time>
      </trkpt>
      <trkpt lat="43.59185" lon="6.2696">
        <ele>501.1</ele>
        <time>2015-06-03T13:24:33Z</time>
      </trkpt>
      <trkpt lat="43.59184" lon="6.26961">
        <ele>501.3</ele>
        <time>2015-06-03T13:24:34Z</time>
      </trkpt>
      <trkpt lat="43.59177" lon="6.26981">
        <ele>502.6</ele>
        <time>2015-06-03T13:24:52Z</time>
      </trkpt>
      <trkpt lat="43.59176" lon="6.26992">
        <ele>504.1</ele>
        <time>2015-06-03T13:25:01Z</time>
      </trkpt>
      <trkpt lat="43.59177" lon="6.27003">
        <ele>505.4</ele>
        <time>2015-06-03T13:25:10Z</time>
      </trkpt>
      <trkpt lat="43.59177" lon="6.27015">
        <ele>506.1</ele>
        <time>2015-06-03T13:25:18Z</time>
      </trkpt>
      <trkpt lat="43.59177" lon="6.27027">
        <ele>506.6</ele>
        <time>2015-06-03T13:25:27Z</time>
      </trkpt>
      <trkpt lat="43.59178" lon="6.27039">
        <ele>507.1</ele>
        <time>2015-06-03T13:25:36Z</time>
      </trkpt>
      <trkpt lat="43.59178" lon="6.2704">
        <ele>507.3</ele>
        <time>2015-06-03T13:25:37Z</time>
      </trkpt>
      <trkpt lat="43.59184" lon="6.2706">
        <ele>508.3</ele>
        <time>2015-06-03T13:25:55Z</time>
      </trkpt>
      <trkpt lat="43.59189" lon="6.2707">
        <ele>510.5</ele>
        <time>2015-06-03T13:26:07Z</time>
      </trkpt>
      <trkpt lat="43.59195" lon="6.27078">
        <ele>511.9</ele>
        <time>2015-06-03T13:26:18Z</time>
      </trkpt>
      <trkpt lat="43.592" lon="6.27088">
        <ele>513.4</ele>
        <time>2015-06-03T13:26:32Z</time>
      </trkpt>
      <trkpt lat="43.59203" lon="6.27099">
        <ele>513.5</ele>
        <time>2015-06-03T13:26:42Z</time>
      </trkpt>
      <trkpt lat="43.59204" lon="6.271">
        <ele>513.6</ele>
        <time>2015-06-03T13:26:43Z</time>
      </trkpt>
      <trkpt lat="43.59217" lon="6.27114">
        <ele>514.6</ele>
        <time>2015-06-03T13:27:01Z</time>
      </trkpt>
      <trkpt lat="43.59225" lon="6.27118">
        <ele>515.3</ele>
        <time>2015-06-03T13:27:13Z</time>
      </trkpt>
      <trkpt lat="43.59233" lon="6.27122">
        <ele>517.1</ele>
        <time>2015-06-03T13:27:26Z</time>
      </trkpt>
      <trkpt lat="43.59241" lon="6.27128">
        <ele>519.8</ele>
        <time>2015-06-03T13:27:42Z</time>
      </trkpt>
      <trkpt lat="43.59246" lon="6.27138">
        <ele>521.7</ele>
        <time>2015-06-03T13:27:59Z</time>
      </trkpt>
      <trkpt lat="43.59246" lon="6.27139">
        <ele>521.6</ele>
        <time>2015-06-03T13:28:00Z</time>
      </trkpt>
      <trkpt lat="43.5926" lon="6.2715">
        <ele>523.2</ele>
        <time>2015-06-03T13:28:20Z</time>
      </trkpt>
      <trkpt lat="43.59268" lon="6.27156">
        <ele>524.5</ele>
        <time>2015-06-03T13:28:31Z</time>
      </trkpt>
      <trkpt lat="43.59276" lon="6.27161">
        <ele>525.9</ele>
        <time>2015-06-03T13:28:43Z</time>
      </trkpt>
      <trkpt lat="43.59279" lon="6.27172">
        <ele>524.7</ele>
        <time>2015-06-03T13:29:14Z</time>
      </trkpt>
      <trkpt lat="43.59279" lon="6.27172">
        <ele>524.6</ele>
        <time>2015-06-03T13:29:15Z</time>
      </trkpt>
      <trkpt lat="43.59288" lon="6.27177">
        <ele>522.2</ele>
        <time>2015-06-03T13:38:17Z</time>
      </trkpt>
      <trkpt lat="43.59304" lon="6.27184">
        <ele>522.3</ele>
        <time>2015-06-03T13:38:40Z</time>
      </trkpt>
      <trkpt lat="43.59312" lon="6.27186">
        <ele>521.5</ele>
        <time>2015-06-03T13:38:49Z</time>
      </trkpt>
      <trkpt lat="43.5932" lon="6.27189">
        <ele>521.5</ele>
        <time>2015-06-03T13:38:58Z</time>
      </trkpt>
      <trkpt lat="43.59328" lon="6.27191">
        <ele>521.2</ele>
        <time>2015-06-03T13:39:07Z</time>
      </trkpt>
      <trkpt lat="43.59337" lon="6.27194">
        <ele>521.7</ele>
        <time>2015-06-03T13:39:18Z</time>
      </trkpt>
      <trkpt lat="43.59338" lon="6.27194">
        <ele>521.7</ele>
        <time>2015-06-03T13:39:19Z</time>
      </trkpt>
      <trkpt lat="43.59351" lon="6.27204">
        <ele>519.2</ele>
        <time>2015-06-03T13:39:36Z</time>
      </trkpt>
      <trkpt lat="43.59359" lon="6.27209">
        <ele>520.8</ele>
        <time>2015-06-03T13:39:46Z</time>
      </trkpt>
      <trkpt lat="43.59365" lon="6.27215">
        <ele>520.2</ele>
        <time>2015-06-03T13:39:55Z</time>
      </trkpt>
      <trkpt lat="43.59373" lon="6.2722">
        <ele>518.8</ele>
        <time>2015-06-03T13:40:03Z</time>
      </trkpt>
      <trkpt lat="43.5938" lon="6.27227">
        <ele>519.4</ele>
        <time>2015-06-03T13:40:14Z</time>
      </trkpt>
      <trkpt lat="43.59387" lon="6.27235">
        <ele>519</ele>
        <time>2015-06-03T13:40:23Z</time>
      </trkpt>
      <trkpt lat="43.59387" lon="6.27235">
        <ele>519</ele>
        <time>2015-06-03T13:40:24Z</time>
      </trkpt>
      <trkpt lat="43.59399" lon="6.2725">
        <ele>517.6</ele>
        <time>2015-06-03T13:40:40Z</time>
      </trkpt>
      <trkpt lat="43.59404" lon="6.27259">
        <ele>515.4</ele>
        <time>2015-06-03T13:40:50Z</time>
      </trkpt>
      <trkpt lat="43.59412" lon="6.27264">
        <ele>516.3</ele>
        <time>2015-06-03T13:41:02Z</time>
      </trkpt>
      <trkpt lat="43.5942" lon="6.27261">
        <ele>518.3</ele>
        <time>2015-06-03T13:41:13Z</time>
      </trkpt>
      <trkpt lat="43.59427" lon="6.27254">
        <ele>518.3</ele>
        <time>2015-06-03T13:41:24Z</time>
      </trkpt>
      <trkpt lat="43.59428" lon="6.27253">
        <ele>518.5</ele>
        <time>2015-06-03T13:41:25Z</time>
      </trkpt>
      <trkpt lat="43.59441" lon="6.27242">
        <ele>520.3</ele>
        <time>2015-06-03T13:41:41Z</time>
      </trkpt>
      <trkpt lat="43.59448" lon="6.27237">
        <ele>520.7</ele>
        <time>2015-06-03T13:41:49Z</time>
      </trkpt>
      <trkpt lat="43.59456" lon="6.27232">
        <ele>520.9</ele>
        <time>2015-06-03T13:41:58Z</time>
      </trkpt>
      <trkpt lat="43.59464" lon="6.27232">
        <ele>520.3</ele>
        <time>2015-06-03T13:42:07Z</time>
      </trkpt>
      <trkpt lat="43.59473" lon="6.27231">
        <ele>520.1</ele>
        <time>2015-06-03T13:42:17Z</time>
      </trkpt>
      <trkpt lat="43.59481" lon="6.27234">
        <ele>519.4</ele>
        <time>2015-06-03T13:42:31Z</time>
      </trkpt>
      <trkpt lat="43.59482" lon="6.27234">
        <ele>519.6</ele>
        <time>2015-06-03T13:42:32Z</time>
      </trkpt>
      <trkpt lat="43.59494" lon="6.27245">
        <ele>520.5</ele>
        <time>2015-06-03T13:42:46Z</time>
      </trkpt>
      <trkpt lat="43.59502" lon="6.27251">
        <ele>520.2</ele>
        <time>2015-06-03T13:42:54Z</time>
      </trkpt>
      <trkpt lat="43.59509" lon="6.27257">
        <ele>520.9</ele>
        <time>2015-06-03T13:43:02Z</time>
      </trkpt>
      <trkpt lat="43.59516" lon="6.27263">
        <ele>520.7</ele>
        <time>2015-06-03T13:43:10Z</time>
      </trkpt>
      <trkpt lat="43.59524" lon="6.27268">
        <ele>521.9</ele>
        <time>2015-06-03T13:43:17Z</time>
      </trkpt>
      <trkpt lat="43.59531" lon="6.27274">
        <ele>522.7</ele>
        <time>2015-06-03T13:43:25Z</time>
      </trkpt>
      <trkpt lat="43.5954" lon="6.27274">
        <ele>523.1</ele>
        <time>2015-06-03T13:43:40Z</time>
      </trkpt>
      <trkpt lat="43.59541" lon="6.27274">
        <ele>523.3</ele>
        <time>2015-06-03T13:43:41Z</time>
      </trkpt>
      <trkpt lat="43.59556" lon="6.27282">
        <ele>523.5</ele>
        <time>2015-06-03T13:44:00Z</time>
      </trkpt>
      <trkpt lat="43.5956" lon="6.27292">
        <ele>523.7</ele>
        <time>2015-06-03T13:44:12Z</time>
      </trkpt>
      <trkpt lat="43.59561" lon="6.27304">
        <ele>523.5</ele>
        <time>2015-06-03T13:44:21Z</time>
      </trkpt>
      <trkpt lat="43.59567" lon="6.27314">
        <ele>523.6</ele>
        <time>2015-06-03T13:44:33Z</time>
      </trkpt>
      <trkpt lat="43.59571" lon="6.27324">
        <ele>524.5</ele>
        <time>2015-06-03T13:44:52Z</time>
      </trkpt>
      <trkpt lat="43.59571" lon="6.27325">
        <ele>524.7</ele>
        <time>2015-06-03T13:44:53Z</time>
      </trkpt>
      <trkpt lat="43.59563" lon="6.27345">
        <ele>525.3</ele>
        <time>2015-06-03T13:45:18Z</time>
      </trkpt>
      <trkpt lat="43.59558" lon="6.27355">
        <ele>526.3</ele>
        <time>2015-06-03T13:45:28Z</time>
      </trkpt>
      <trkpt lat="43.59558" lon="6.27367">
        <ele>526</ele>
        <time>2015-06-03T13:45:38Z</time>
      </trkpt>
      <trkpt lat="43.59555" lon="6.27377">
        <ele>526.8</ele>
        <time>2015-06-03T13:45:53Z</time>
      </trkpt>
      <trkpt lat="43.59554" lon="6.27378">
        <ele>527</ele>
        <time>2015-06-03T13:45:54Z</time>
      </trkpt>
      <trkpt lat="43.59546" lon="6.27397">
        <ele>527.7</ele>
        <time>2015-06-03T13:46:12Z</time>
      </trkpt>
      <trkpt lat="43.5954" lon="6.27404">
        <ele>528.2</ele>
        <time>2015-06-03T13:46:19Z</time>
      </trkpt>
      <trkpt lat="43.59533" lon="6.27412">
        <ele>528.1</ele>
        <time>2015-06-03T13:46:27Z</time>
      </trkpt>
      <trkpt lat="43.59526" lon="6.27418">
        <ele>527.6</ele>
        <time>2015-06-03T13:46:38Z</time>
      </trkpt>
      <trkpt lat="43.59518" lon="6.27422">
        <ele>528.7</ele>
        <time>2015-06-03T13:46:49Z</time>
      </trkpt>
      <trkpt lat="43.5951" lon="6.27428">
        <ele>528.2</ele>
        <time>2015-06-03T13:46:59Z</time>
      </trkpt>
      <trkpt lat="43.59509" lon="6.27428">
        <ele>528.4</ele>
        <time>2015-06-03T13:47:00Z</time>
      </trkpt>
      <trkpt lat="43.59495" lon="6.2744">
        <ele>526.8</ele>
        <time>2015-06-03T13:47:18Z</time>
      </trkpt>
      <trkpt lat="43.59487" lon="6.27444">
        <ele>528.1</ele>
        <time>2015-06-03T13:47:29Z</time>
      </trkpt>
      <trkpt lat="43.59478" lon="6.27449">
        <ele>527</ele>
        <time>2015-06-03T13:47:38Z</time>
      </trkpt>
      <trkpt lat="43.59471" lon="6.27453">
        <ele>527</ele>
        <time>2015-06-03T13:47:47Z</time>
      </trkpt>
      <trkpt lat="43.59463" lon="6.27457">
        <ele>527.3</ele>
        <time>2015-06-03T13:47:57Z</time>
      </trkpt>
      <trkpt lat="43.59455" lon="6.27463">
        <ele>526.8</ele>
        <time>2015-06-03T13:48:06Z</time>
      </trkpt>
      <trkpt lat="43.59454" lon="6.27463">
        <ele>526.7</ele>
        <time>2015-06-03T13:48:07Z</time>
      </trkpt>
      <trkpt lat="43.59438" lon="6.27471">
        <ele>526</ele>
        <time>2015-06-03T13:48:25Z</time>
      </trkpt>
      <trkpt lat="43.59431" lon="6.27476">
        <ele>525</ele>
        <time>2015-06-03T13:48:34Z</time>
      </trkpt>
      <trkpt lat="43.59424" lon="6.27483">
        <ele>525.1</ele>
        <time>2015-06-03T13:48:42Z</time>
      </trkpt>
      <trkpt lat="43.59416" lon="6.27488">
        <ele>525.1</ele>
        <time>2015-06-03T13:48:51Z</time>
      </trkpt>
      <trkpt lat="43.59408" lon="6.27491">
        <ele>524.8</ele>
        <time>2015-06-03T13:49:01Z</time>
      </trkpt>
      <trkpt lat="43.594" lon="6.27493">
        <ele>524.9</ele>
        <time>2015-06-03T13:49:10Z</time>
      </trkpt>
      <trkpt lat="43.59399" lon="6.27494">
        <ele>524.7</ele>
        <time>2015-06-03T13:49:11Z</time>
      </trkpt>
      <trkpt lat="43.59384" lon="6.27499">
        <ele>524.2</ele>
        <time>2015-06-03T13:49:28Z</time>
      </trkpt>
      <trkpt lat="43.59376" lon="6.27498">
        <ele>523.7</ele>
        <time>2015-06-03T13:49:37Z</time>
      </trkpt>
      <trkpt lat="43.59367" lon="6.27497">
        <ele>524.4</ele>
        <time>2015-06-03T13:49:49Z</time>
      </trkpt>
      <trkpt lat="43.59358" lon="6.27496">
        <ele>524.9</ele>
        <time>2015-06-03T13:49:59Z</time>
      </trkpt>
      <trkpt lat="43.5935" lon="6.27495">
        <ele>525.1</ele>
        <time>2015-06-03T13:50:09Z</time>
      </trkpt>
      <trkpt lat="43.59342" lon="6.27495">
        <ele>525.9</ele>
        <time>2015-06-03T13:50:18Z</time>
      </trkpt>
      <trkpt lat="43.59341" lon="6.27495">
        <ele>525.9</ele>
        <time>2015-06-03T13:50:19Z</time>
      </trkpt>
      <trkpt lat="43.59326" lon="6.27485">
        <ele>525.2</ele>
        <time>2015-06-03T13:50:41Z</time>
      </trkpt>
      <trkpt lat="43.59317" lon="6.27481">
        <ele>526.7</ele>
        <time>2015-06-03T13:50:48Z</time>
      </trkpt>
      <trkpt lat="43.5931" lon="6.27476">
        <ele>526.1</ele>
        <time>2015-06-03T13:50:57Z</time>
      </trkpt>
      <trkpt lat="43.59301" lon="6.27475">
        <ele>527.5</ele>
        <time>2015-06-03T13:51:08Z</time>
      </trkpt>
      <trkpt lat="43.59293" lon="6.27472">
        <ele>527.3</ele>
        <time>2015-06-03T13:51:20Z</time>
      </trkpt>
      <trkpt lat="43.59292" lon="6.27472">
        <ele>526.9</ele>
        <time>2015-06-03T13:51:21Z</time>
      </trkpt>
      <trkpt lat="43.59279" lon="6.27459">
        <ele>526.9</ele>
        <time>2015-06-03T13:51:42Z</time>
      </trkpt>
      <trkpt lat="43.59273" lon="6.2745">
        <ele>527.7</ele>
        <time>2015-06-03T13:51:53Z</time>
      </trkpt>
      <trkpt lat="43.59267" lon="6.27441">
        <ele>526</ele>
        <time>2015-06-03T13:52:03Z</time>
      </trkpt>
      <trkpt lat="43.59261" lon="6.27434">
        <ele>525.7</ele>
        <time>2015-06-03T13:52:17Z</time>
      </trkpt>
      <trkpt lat="43.59253" lon="6.27428">
        <ele>524.6</ele>
        <time>2015-06-03T13:52:28Z</time>
      </trkpt>
      <trkpt lat="43.59252" lon="6.27427">
        <ele>524.1</ele>
        <time>2015-06-03T13:52:29Z</time>
      </trkpt>
      <trkpt lat="43.59237" lon="6.27421">
        <ele>523.3</ele>
        <time>2015-06-03T13:52:44Z</time>
      </trkpt>
      <trkpt lat="43.59229" lon="6.27422">
        <ele>522.7</ele>
        <time>2015-06-03T13:52:52Z</time>
      </trkpt>
      <trkpt lat="43.5922" lon="6.27421">
        <ele>522.5</ele>
        <time>2015-06-03T13:53:01Z</time>
      </trkpt>
      <trkpt lat="43.59212" lon="6.27425">
        <ele>522.6</ele>
        <time>2015-06-03T13:53:12Z</time>
      </trkpt>
      <trkpt lat="43.59204" lon="6.27428">
        <ele>523.1</ele>
        <time>2015-06-03T13:53:21Z</time>
      </trkpt>
      <trkpt lat="43.59196" lon="6.27431">
        <ele>523.3</ele>
        <time>2015-06-03T13:53:31Z</time>
      </trkpt>
      <trkpt lat="43.59195" lon="6.27432">
        <ele>523.3</ele>
        <time>2015-06-03T13:53:32Z</time>
      </trkpt>
      <trkpt lat="43.5918" lon="6.2744">
        <ele>522.7</ele>
        <time>2015-06-03T13:53:52Z</time>
      </trkpt>
      <trkpt lat="43.59173" lon="6.27446">
        <ele>522.5</ele>
        <time>2015-06-03T13:54:01Z</time>
      </trkpt>
      <trkpt lat="43.59165" lon="6.27452">
        <ele>521.3</ele>
        <time>2015-06-03T13:54:40Z</time>
      </trkpt>
      <trkpt lat="43.59164" lon="6.27452">
        <ele>520.9</ele>
        <time>2015-06-03T13:54:41Z</time>
      </trkpt>
      <trkpt lat="43.59149" lon="6.27459">
        <ele>519</ele>
        <time>2015-06-03T13:55:02Z</time>
      </trkpt>
      <trkpt lat="43.5914" lon="6.27463">
        <ele>518.2</ele>
        <time>2015-06-03T13:55:18Z</time>
      </trkpt>
      <trkpt lat="43.59132" lon="6.27466">
        <ele>516.4</ele>
        <time>2015-06-03T13:55:33Z</time>
      </trkpt>
      <trkpt lat="43.59125" lon="6.27472">
        <ele>516</ele>
        <time>2015-06-03T13:55:45Z</time>
      </trkpt>
      <trkpt lat="43.59125" lon="6.27473">
        <ele>515.8</ele>
        <time>2015-06-03T13:55:46Z</time>
      </trkpt>
      <trkpt lat="43.59111" lon="6.27484">
        <ele>512.1</ele>
        <time>2015-06-03T13:56:11Z</time>
      </trkpt>
      <trkpt lat="43.59103" lon="6.27489">
        <ele>510.1</ele>
        <time>2015-06-03T13:56:23Z</time>
      </trkpt>
      <trkpt lat="43.59095" lon="6.27494">
        <ele>508.4</ele>
        <time>2015-06-03T13:56:38Z</time>
      </trkpt>
      <trkpt lat="43.59088" lon="6.275">
        <ele>505.8</ele>
        <time>2015-06-03T13:56:51Z</time>
      </trkpt>
      <trkpt lat="43.59087" lon="6.27501">
        <ele>506</ele>
        <time>2015-06-03T13:56:52Z</time>
      </trkpt>
      <trkpt lat="43.59076" lon="6.27518">
        <ele>501.1</ele>
        <time>2015-06-03T13:57:33Z</time>
      </trkpt>
      <trkpt lat="43.59069" lon="6.27526">
        <ele>499.4</ele>
        <time>2015-06-03T13:57:49Z</time>
      </trkpt>
      <trkpt lat="43.59063" lon="6.27535">
        <ele>496.3</ele>
        <time>2015-06-03T13:58:21Z</time>
      </trkpt>
      <trkpt lat="43.59063" lon="6.27535">
        <ele>496.3</ele>
        <time>2015-06-03T13:58:22Z</time>
      </trkpt>
      <trkpt lat="43.59049" lon="6.27548">
        <ele>493.3</ele>
        <time>2015-06-03T13:58:50Z</time>
      </trkpt>
      <trkpt lat="43.59043" lon="6.27556">
        <ele>492.5</ele>
        <time>2015-06-03T13:59:04Z</time>
      </trkpt>
      <trkpt lat="43.59038" lon="6.27566">
        <ele>491.9</ele>
        <time>2015-06-03T13:59:15Z</time>
      </trkpt>
      <trkpt lat="43.59033" lon="6.27576">
        <ele>491.9</ele>
        <time>2015-06-03T13:59:24Z</time>
      </trkpt>
      <trkpt lat="43.59033" lon="6.27578">
        <ele>491.9</ele>
        <time>2015-06-03T13:59:25Z</time>
      </trkpt>
      <trkpt lat="43.59024" lon="6.27596">
        <ele>491.1</ele>
        <time>2015-06-03T13:59:42Z</time>
      </trkpt>
      <trkpt lat="43.59015" lon="6.27597">
        <ele>490.3</ele>
        <time>2015-06-03T13:59:55Z</time>
      </trkpt>
      <trkpt lat="43.59007" lon="6.27598">
        <ele>490.8</ele>
        <time>2015-06-03T14:00:07Z</time>
      </trkpt>
      <trkpt lat="43.58998" lon="6.27599">
        <ele>490.6</ele>
        <time>2015-06-03T14:00:18Z</time>
      </trkpt>
      <trkpt lat="43.5899" lon="6.27599">
        <ele>490</ele>
        <time>2015-06-03T14:00:27Z</time>
      </trkpt>
      <trkpt lat="43.58989" lon="6.27599">
        <ele>490.2</ele>
        <time>2015-06-03T14:00:28Z</time>
      </trkpt>
      <trkpt lat="43.58974" lon="6.27604">
        <ele>490.5</ele>
        <time>2015-06-03T14:00:44Z</time>
      </trkpt>
      <trkpt lat="43.58965" lon="6.27606">
        <ele>490.5</ele>
        <time>2015-06-03T14:00:53Z</time>
      </trkpt>
      <trkpt lat="43.58958" lon="6.2761">
        <ele>490</ele>
        <time>2015-06-03T14:01:02Z</time>
      </trkpt>
      <trkpt lat="43.5895" lon="6.27617">
        <ele>489.2</ele>
        <time>2015-06-03T14:01:13Z</time>
      </trkpt>
      <trkpt lat="43.58944" lon="6.27625">
        <ele>488.6</ele>
        <time>2015-06-03T14:01:24Z</time>
      </trkpt>
      <trkpt lat="43.58939" lon="6.27634">
        <ele>487.9</ele>
        <time>2015-06-03T14:01:33Z</time>
      </trkpt>
      <trkpt lat="43.58939" lon="6.27635">
        <ele>488</ele>
        <time>2015-06-03T14:01:34Z</time>
      </trkpt>
      <trkpt lat="43.5893" lon="6.27654">
        <ele>487.8</ele>
        <time>2015-06-03T14:01:51Z</time>
      </trkpt>
      <trkpt lat="43.58925" lon="6.27664">
        <ele>487.5</ele>
        <time>2015-06-03T14:01:59Z</time>
      </trkpt>
      <trkpt lat="43.58918" lon="6.27672">
        <ele>485.7</ele>
        <time>2015-06-03T14:02:07Z</time>
      </trkpt>
      <trkpt lat="43.5891" lon="6.27676">
        <ele>486.9</ele>
        <time>2015-06-03T14:02:17Z</time>
      </trkpt>
      <trkpt lat="43.58902" lon="6.27677">
        <ele>486.2</ele>
        <time>2015-06-03T14:02:28Z</time>
      </trkpt>
      <trkpt lat="43.58894" lon="6.27684">
        <ele>485</ele>
        <time>2015-06-03T14:02:42Z</time>
      </trkpt>
      <trkpt lat="43.58894" lon="6.27684">
        <ele>484.5</ele>
        <time>2015-06-03T14:02:43Z</time>
      </trkpt>
      <trkpt lat="43.58877" lon="6.27691">
        <ele>482.8</ele>
        <time>2015-06-03T14:03:33Z</time>
      </trkpt>
      <trkpt lat="43.58877" lon="6.27703">
        <ele>482.4</ele>
        <time>2015-06-03T14:04:00Z</time>
      </trkpt>
      <trkpt lat="43.58877" lon="6.27704">
        <ele>482.3</ele>
        <time>2015-06-03T14:04:01Z</time>
      </trkpt>
      <trkpt lat="43.58869" lon="6.27723">
        <ele>480.8</ele>
        <time>2015-06-03T14:04:20Z</time>
      </trkpt>
      <trkpt lat="43.58862" lon="6.2773">
        <ele>480.2</ele>
        <time>2015-06-03T14:04:35Z</time>
      </trkpt>
      <trkpt lat="43.58857" lon="6.2774">
        <ele>479.8</ele>
        <time>2015-06-03T14:04:48Z</time>
      </trkpt>
      <trkpt lat="43.58851" lon="6.27749">
        <ele>480.1</ele>
        <time>2015-06-03T14:04:56Z</time>
      </trkpt>
      <trkpt lat="43.58843" lon="6.27754">
        <ele>478.6</ele>
        <time>2015-06-03T14:05:05Z</time>
      </trkpt>
      <trkpt lat="43.58842" lon="6.27755">
        <ele>478.7</ele>
        <time>2015-06-03T14:05:06Z</time>
      </trkpt>
      <trkpt lat="43.58829" lon="6.27768">
        <ele>477.9</ele>
        <time>2015-06-03T14:05:23Z</time>
      </trkpt>
      <trkpt lat="43.58822" lon="6.27776">
        <ele>477.1</ele>
        <time>2015-06-03T14:05:32Z</time>
      </trkpt>
      <trkpt lat="43.58816" lon="6.27784">
        <ele>476.3</ele>
        <time>2015-06-03T14:05:41Z</time>
      </trkpt>
      <trkpt lat="43.58816" lon="6.27796">
        <ele>475.8</ele>
        <time>2015-06-03T14:05:55Z</time>
      </trkpt>
      <trkpt lat="43.58818" lon="6.27808">
        <ele>476.3</ele>
        <time>2015-06-03T14:06:05Z</time>
      </trkpt>
      <trkpt lat="43.58815" lon="6.27819">
        <ele>477.1</ele>
        <time>2015-06-03T14:06:40Z</time>
      </trkpt>
      <trkpt lat="43.58815" lon="6.2782">
        <ele>476.6</ele>
        <time>2015-06-03T14:06:41Z</time>
      </trkpt>
      <trkpt lat="43.5881" lon="6.27829">
        <ele>477.1</ele>
        <time>2015-06-03T14:09:56Z</time>
      </trkpt>
      <trkpt lat="43.5881" lon="6.27829">
        <ele>477.4</ele>
        <time>2015-06-03T14:09:57Z</time>
      </trkpt>
      <trkpt lat="43.58809" lon="6.27816">
        <ele>477.9</ele>
        <time>2015-06-03T14:14:06Z</time>
      </trkpt>
      <trkpt lat="43.58793" lon="6.27815">
        <ele>473.9</ele>
        <time>2015-06-03T14:14:44Z</time>
      </trkpt>
      <trkpt lat="43.58784" lon="6.27816">
        <ele>471.9</ele>
        <time>2015-06-03T14:14:59Z</time>
      </trkpt>
      <trkpt lat="43.58776" lon="6.27821">
        <ele>470</ele>
        <time>2015-06-03T14:15:20Z</time>
      </trkpt>
      <trkpt lat="43.58776" lon="6.27821">
        <ele>469.7</ele>
        <time>2015-06-03T14:15:21Z</time>
      </trkpt>
      <trkpt lat="43.58768" lon="6.27842">
        <ele>461.2</ele>
        <time>2015-06-03T14:16:28Z</time>
      </trkpt>
      <trkpt lat="43.58767" lon="6.27843">
        <ele>461.2</ele>
        <time>2015-06-03T14:16:29Z</time>
      </trkpt>
      <trkpt lat="43.58757" lon="6.27843">
        <ele>457.6</ele>
        <time>2015-06-03T14:17:58Z</time>
      </trkpt>
      <trkpt lat="43.58755" lon="6.27842">
        <ele>457.8</ele>
        <time>2015-06-03T14:17:59Z</time>
      </trkpt>
      <trkpt lat="43.58743" lon="6.27828">
        <ele>456.3</ele>
        <time>2015-06-03T14:18:20Z</time>
      </trkpt>
      <trkpt lat="43.58739" lon="6.27817">
        <ele>455.5</ele>
        <time>2015-06-03T14:18:34Z</time>
      </trkpt>
      <trkpt lat="43.58739" lon="6.27805">
        <ele>455.8</ele>
        <time>2015-06-03T14:18:46Z</time>
      </trkpt>
      <trkpt lat="43.58743" lon="6.27794">
        <ele>455.5</ele>
        <time>2015-06-03T14:18:53Z</time>
      </trkpt>
      <trkpt lat="43.58741" lon="6.27782">
        <ele>454.7</ele>
        <time>2015-06-03T14:19:08Z</time>
      </trkpt>
      <trkpt lat="43.58741" lon="6.27782">
        <ele>454.7</ele>
        <time>2015-06-03T14:19:09Z</time>
      </trkpt>
      <trkpt lat="43.58748" lon="6.27761">
        <ele>456.2</ele>
        <time>2015-06-03T14:19:27Z</time>
      </trkpt>
      <trkpt lat="43.58749" lon="6.2775">
        <ele>456.6</ele>
        <time>2015-06-03T14:19:37Z</time>
      </trkpt>
      <trkpt lat="43.5875" lon="6.27737">
        <ele>457.5</ele>
        <time>2015-06-03T14:19:48Z</time>
      </trkpt>
      <trkpt lat="43.58747" lon="6.27727">
        <ele>458.3</ele>
        <time>2015-06-03T14:19:56Z</time>
      </trkpt>
      <trkpt lat="43.58744" lon="6.27716">
        <ele>459.8</ele>
        <time>2015-06-03T14:20:09Z</time>
      </trkpt>
      <trkpt lat="43.58743" lon="6.27715">
        <ele>459.9</ele>
        <time>2015-06-03T14:20:10Z</time>
      </trkpt>
      <trkpt lat="43.58735" lon="6.27695">
        <ele>461.2</ele>
        <time>2015-06-03T14:20:37Z</time>
      </trkpt>
      <trkpt lat="43.58733" lon="6.27684">
        <ele>458.6</ele>
        <time>2015-06-03T14:20:54Z</time>
      </trkpt>
      <trkpt lat="43.58735" lon="6.27672">
        <ele>457.1</ele>
        <time>2015-06-03T14:21:11Z</time>
      </trkpt>
      <trkpt lat="43.58735" lon="6.27671">
        <ele>456.7</ele>
        <time>2015-06-03T14:21:12Z</time>
      </trkpt>
      <trkpt lat="43.5874" lon="6.27648">
        <ele>452.9</ele>
        <time>2015-06-03T14:21:38Z</time>
      </trkpt>
      <trkpt lat="43.58739" lon="6.27636">
        <ele>452</ele>
        <time>2015-06-03T14:21:51Z</time>
      </trkpt>
      <trkpt lat="43.5874" lon="6.27624">
        <ele>451.1</ele>
        <time>2015-06-03T14:22:00Z</time>
      </trkpt>
      <trkpt lat="43.58736" lon="6.27614">
        <ele>448.4</ele>
        <time>2015-06-03T14:22:17Z</time>
      </trkpt>
      <trkpt lat="43.58735" lon="6.27614">
        <ele>447.8</ele>
        <time>2015-06-03T14:22:18Z</time>
      </trkpt>
      <trkpt lat="43.58721" lon="6.27602">
        <ele>446.9</ele>
        <time>2015-06-03T14:22:40Z</time>
      </trkpt>
      <trkpt lat="43.58719" lon="6.2759">
        <ele>447.9</ele>
        <time>2015-06-03T14:22:58Z</time>
      </trkpt>
      <trkpt lat="43.58718" lon="6.27578">
        <ele>447.2</ele>
        <time>2015-06-03T14:23:11Z</time>
      </trkpt>
      <trkpt lat="43.58715" lon="6.27567">
        <ele>446.8</ele>
        <time>2015-06-03T14:23:20Z</time>
      </trkpt>
      <trkpt lat="43.58715" lon="6.27565">
        <ele>446.9</ele>
        <time>2015-06-03T14:23:21Z</time>
      </trkpt>
      <trkpt lat="43.58712" lon="6.27543">
        <ele>444.7</ele>
        <time>2015-06-03T14:23:38Z</time>
      </trkpt>
      <trkpt lat="43.5871" lon="6.27532">
        <ele>444.8</ele>
        <time>2015-06-03T14:23:46Z</time>
      </trkpt>
      <trkpt lat="43.58711" lon="6.2752">
        <ele>443.7</ele>
        <time>2015-06-03T14:23:55Z</time>
      </trkpt>
      <trkpt lat="43.58712" lon="6.2751">
        <ele>442.6</ele>
        <time>2015-06-03T14:24:03Z</time>
      </trkpt>
      <trkpt lat="43.58713" lon="6.27498">
        <ele>442.4</ele>
        <time>2015-06-03T14:24:11Z</time>
      </trkpt>
      <trkpt lat="43.58714" lon="6.27486">
        <ele>441.9</ele>
        <time>2015-06-03T14:24:20Z</time>
      </trkpt>
      <trkpt lat="43.58716" lon="6.27475">
        <ele>441</ele>
        <time>2015-06-03T14:24:29Z</time>
      </trkpt>
      <trkpt lat="43.58716" lon="6.27474">
        <ele>441</ele>
        <time>2015-06-03T14:24:30Z</time>
      </trkpt>
      <trkpt lat="43.58718" lon="6.27452">
        <ele>440.7</ele>
        <time>2015-06-03T14:24:48Z</time>
      </trkpt>
      <trkpt lat="43.58719" lon="6.27441">
        <ele>439.7</ele>
        <time>2015-06-03T14:24:57Z</time>
      </trkpt>
      <trkpt lat="43.58719" lon="6.27429">
        <ele>439.5</ele>
        <time>2015-06-03T14:25:04Z</time>
      </trkpt>
      <trkpt lat="43.58715" lon="6.27419">
        <ele>439</ele>
        <time>2015-06-03T14:25:16Z</time>
      </trkpt>
      <trkpt lat="43.58709" lon="6.27411">
        <ele>438.5</ele>
        <time>2015-06-03T14:25:26Z</time>
      </trkpt>
      <trkpt lat="43.58704" lon="6.27401">
        <ele>437.5</ele>
        <time>2015-06-03T14:25:39Z</time>
      </trkpt>
      <trkpt lat="43.58704" lon="6.274">
        <ele>437.7</ele>
        <time>2015-06-03T14:25:40Z</time>
      </trkpt>
      <trkpt lat="43.587" lon="6.27377">
        <ele>436</ele>
        <time>2015-06-03T14:26:06Z</time>
      </trkpt>
      <trkpt lat="43.58695" lon="6.27367">
        <ele>434.6</ele>
        <time>2015-06-03T14:26:20Z</time>
      </trkpt>
      <trkpt lat="43.58687" lon="6.27363">
        <ele>433.8</ele>
        <time>2015-06-03T14:26:29Z</time>
      </trkpt>
      <trkpt lat="43.58679" lon="6.2736">
        <ele>432.7</ele>
        <time>2015-06-03T14:26:38Z</time>
      </trkpt>
      <trkpt lat="43.58673" lon="6.27352">
        <ele>432.8</ele>
        <time>2015-06-03T14:26:47Z</time>
      </trkpt>
      <trkpt lat="43.58673" lon="6.27351">
        <ele>432.9</ele>
        <time>2015-06-03T14:26:48Z</time>
      </trkpt>
      <trkpt lat="43.58658" lon="6.27342">
        <ele>431.3</ele>
        <time>2015-06-03T14:27:03Z</time>
      </trkpt>
      <trkpt lat="43.58649" lon="6.27339">
        <ele>431.9</ele>
        <time>2015-06-03T14:27:13Z</time>
      </trkpt>
      <trkpt lat="43.58641" lon="6.27335">
        <ele>431.9</ele>
        <time>2015-06-03T14:27:22Z</time>
      </trkpt>
      <trkpt lat="43.58635" lon="6.27327">
        <ele>431.3</ele>
        <time>2015-06-03T14:27:33Z</time>
      </trkpt>
      <trkpt lat="43.58628" lon="6.2732">
        <ele>429.7</ele>
        <time>2015-06-03T14:27:49Z</time>
      </trkpt>
      <trkpt lat="43.58627" lon="6.27319">
        <ele>428.9</ele>
        <time>2015-06-03T14:27:50Z</time>
      </trkpt>
      <trkpt lat="43.58615" lon="6.27303">
        <ele>428.4</ele>
        <time>2015-06-03T14:28:12Z</time>
      </trkpt>
      <trkpt lat="43.58609" lon="6.27295">
        <ele>428.6</ele>
        <time>2015-06-03T14:28:22Z</time>
      </trkpt>
      <trkpt lat="43.58604" lon="6.27286">
        <ele>427.4</ele>
        <time>2015-06-03T14:28:34Z</time>
      </trkpt>
      <trkpt lat="43.58601" lon="6.27276">
        <ele>427.1</ele>
        <time>2015-06-03T14:28:42Z</time>
      </trkpt>
      <trkpt lat="43.58601" lon="6.27264">
        <ele>426.3</ele>
        <time>2015-06-03T14:28:48Z</time>
      </trkpt>
      <trkpt lat="43.586" lon="6.27253">
        <ele>426.5</ele>
        <time>2015-06-03T14:28:55Z</time>
      </trkpt>
      <trkpt lat="43.58599" lon="6.27252">
        <ele>426.4</ele>
        <time>2015-06-03T14:28:56Z</time>
      </trkpt>
      <trkpt lat="43.58589" lon="6.27235">
        <ele>425</ele>
        <time>2015-06-03T14:29:18Z</time>
      </trkpt>
      <trkpt lat="43.58581" lon="6.27233">
        <ele>425.4</ele>
        <time>2015-06-03T14:29:25Z</time>
      </trkpt>
      <trkpt lat="43.58573" lon="6.27233">
        <ele>425.6</ele>
        <time>2015-06-03T14:29:35Z</time>
      </trkpt>
      <trkpt lat="43.58564" lon="6.27233">
        <ele>426.1</ele>
        <time>2015-06-03T14:29:45Z</time>
      </trkpt>
      <trkpt lat="43.58557" lon="6.27238">
        <ele>426.2</ele>
        <time>2015-06-03T14:29:53Z</time>
      </trkpt>
      <trkpt lat="43.58549" lon="6.27243">
        <ele>426.4</ele>
        <time>2015-06-03T14:30:04Z</time>
      </trkpt>
      <trkpt lat="43.58548" lon="6.27244">
        <ele>426.7</ele>
        <time>2015-06-03T14:30:05Z</time>
      </trkpt>
      <trkpt lat="43.58545" lon="6.27262">
        <ele>428</ele>
        <time>2015-06-03T14:30:25Z</time>
      </trkpt>
      <trkpt lat="43.58546" lon="6.27273">
        <ele>429.2</ele>
        <time>2015-06-03T14:30:39Z</time>
      </trkpt>
      <trkpt lat="43.58543" lon="6.27285">
        <ele>432.1</ele>
        <time>2015-06-03T14:30:59Z</time>
      </trkpt>
      <trkpt lat="43.58535" lon="6.27284">
        <ele>433.1</ele>
        <time>2015-06-03T14:31:20Z</time>
      </trkpt>
      <trkpt lat="43.58534" lon="6.27284">
        <ele>433.2</ele>
        <time>2015-06-03T14:31:21Z</time>
      </trkpt>
      <trkpt lat="43.58539" lon="6.27296">
        <ele>431.2</ele>
        <time>2015-06-03T14:44:22Z</time>
      </trkpt>
      <trkpt lat="43.58523" lon="6.27305">
        <ele>424.4</ele>
        <time>2015-06-03T14:45:08Z</time>
      </trkpt>
      <trkpt lat="43.58523" lon="6.27316">
        <ele>422.2</ele>
        <time>2015-06-03T14:45:25Z</time>
      </trkpt>
      <trkpt lat="43.58523" lon="6.27317">
        <ele>422.3</ele>
        <time>2015-06-03T14:45:26Z</time>
      </trkpt>
      <trkpt lat="43.58526" lon="6.27341">
        <ele>418.7</ele>
        <time>2015-06-03T14:45:51Z</time>
      </trkpt>
      <trkpt lat="43.58526" lon="6.27353">
        <ele>418.7</ele>
        <time>2015-06-03T14:46:00Z</time>
      </trkpt>
      <trkpt lat="43.58526" lon="6.27364">
        <ele>417.8</ele>
        <time>2015-06-03T14:46:09Z</time>
      </trkpt>
      <trkpt lat="43.58528" lon="6.27376">
        <ele>415.2</ele>
        <time>2015-06-03T14:46:20Z</time>
      </trkpt>
      <trkpt lat="43.58528" lon="6.27387">
        <ele>414.3</ele>
        <time>2015-06-03T14:46:31Z</time>
      </trkpt>
      <trkpt lat="43.58528" lon="6.27388">
        <ele>414.1</ele>
        <time>2015-06-03T14:46:32Z</time>
      </trkpt>
      <trkpt lat="43.5852" lon="6.27409">
        <ele>409.8</ele>
        <time>2015-06-03T14:47:02Z</time>
      </trkpt>
      <trkpt lat="43.58518" lon="6.27421">
        <ele>409.9</ele>
        <time>2015-06-03T14:47:28Z</time>
      </trkpt>
      <trkpt lat="43.58511" lon="6.27428">
        <ele>407.8</ele>
        <time>2015-06-03T14:47:48Z</time>
      </trkpt>
      <trkpt lat="43.5851" lon="6.27428">
        <ele>407.8</ele>
        <time>2015-06-03T14:47:49Z</time>
      </trkpt>
      <trkpt lat="43.585" lon="6.27441">
        <ele>403.2</ele>
        <time>2015-06-03T14:48:40Z</time>
      </trkpt>
      <trkpt lat="43.58499" lon="6.27453">
        <ele>399.7</ele>
        <time>2015-06-03T14:48:58Z</time>
      </trkpt>
      <trkpt lat="43.58499" lon="6.27454">
        <ele>399.5</ele>
        <time>2015-06-03T14:48:59Z</time>
      </trkpt>
      <trkpt lat="43.58499" lon="6.27478">
        <ele>396.1</ele>
        <time>2015-06-03T14:49:27Z</time>
      </trkpt>
      <trkpt lat="43.585" lon="6.2749">
        <ele>395.1</ele>
        <time>2015-06-03T14:49:43Z</time>
      </trkpt>
      <trkpt lat="43.58499" lon="6.27502">
        <ele>394.6</ele>
        <time>2015-06-03T14:49:55Z</time>
      </trkpt>
      <trkpt lat="43.58496" lon="6.27513">
        <ele>394</ele>
        <time>2015-06-03T14:50:14Z</time>
      </trkpt>
      <trkpt lat="43.58496" lon="6.27514">
        <ele>394.2</ele>
        <time>2015-06-03T14:50:15Z</time>
      </trkpt>
      <trkpt lat="43.58498" lon="6.27536">
        <ele>392.7</ele>
        <time>2015-06-03T14:51:31Z</time>
      </trkpt>
      <trkpt lat="43.58499" lon="6.27537">
        <ele>392.6</ele>
        <time>2015-06-03T14:51:32Z</time>
      </trkpt>
      <trkpt lat="43.585" lon="6.27549">
        <ele>387.3</ele>
        <time>2015-06-03T14:52:55Z</time>
      </trkpt>
      <trkpt lat="43.58491" lon="6.27552">
        <ele>384</ele>
        <time>2015-06-03T14:54:15Z</time>
      </trkpt>
      <trkpt lat="43.58483" lon="6.27558">
        <ele>381.1</ele>
        <time>2015-06-03T14:55:27Z</time>
      </trkpt>
      <trkpt lat="43.58466" lon="6.27564">
        <ele>378.1</ele>
        <time>2015-06-03T14:56:09Z</time>
      </trkpt>
      <trkpt lat="43.58459" lon="6.27571">
        <ele>374.8</ele>
        <time>2015-06-03T14:56:32Z</time>
      </trkpt>
      <trkpt lat="43.58458" lon="6.27571">
        <ele>374.7</ele>
        <time>2015-06-03T14:56:33Z</time>
      </trkpt>
      <trkpt lat="43.58444" lon="6.27582">
        <ele>372.4</ele>
        <time>2015-06-03T14:57:02Z</time>
      </trkpt>
      <trkpt lat="43.58436" lon="6.27588">
        <ele>371.2</ele>
        <time>2015-06-03T14:57:11Z</time>
      </trkpt>
      <trkpt lat="43.58428" lon="6.27592">
        <ele>368.9</ele>
        <time>2015-06-03T14:57:25Z</time>
      </trkpt>
      <trkpt lat="43.58419" lon="6.27589">
        <ele>369</ele>
        <time>2015-06-03T14:57:40Z</time>
      </trkpt>
      <trkpt lat="43.58419" lon="6.27589">
        <ele>369.1</ele>
        <time>2015-06-03T14:57:41Z</time>
      </trkpt>
      <trkpt lat="43.58422" lon="6.2761">
        <ele>369.6</ele>
        <time>2015-06-03T14:58:50Z</time>
      </trkpt>
      <trkpt lat="43.58422" lon="6.27611">
        <ele>369.8</ele>
        <time>2015-06-03T14:58:51Z</time>
      </trkpt>
      <trkpt lat="43.58433" lon="6.27629">
        <ele>369.8</ele>
        <time>2015-06-03T14:59:10Z</time>
      </trkpt>
      <trkpt lat="43.58438" lon="6.27638">
        <ele>368.8</ele>
        <time>2015-06-03T14:59:20Z</time>
      </trkpt>
      <trkpt lat="43.58444" lon="6.27647">
        <ele>368.2</ele>
        <time>2015-06-03T14:59:29Z</time>
      </trkpt>
      <trkpt lat="43.58447" lon="6.27658">
        <ele>368.1</ele>
        <time>2015-06-03T14:59:45Z</time>
      </trkpt>
      <trkpt lat="43.5845" lon="6.2767">
        <ele>367.4</ele>
        <time>2015-06-03T15:00:06Z</time>
      </trkpt>
      <trkpt lat="43.5845" lon="6.27671">
        <ele>367.4</ele>
        <time>2015-06-03T15:00:07Z</time>
      </trkpt>
      <trkpt lat="43.58456" lon="6.27691">
        <ele>366.8</ele>
        <time>2015-06-03T15:00:25Z</time>
      </trkpt>
      <trkpt lat="43.58462" lon="6.277">
        <ele>366.2</ele>
        <time>2015-06-03T15:00:32Z</time>
      </trkpt>
      <trkpt lat="43.58468" lon="6.27708">
        <ele>366</ele>
        <time>2015-06-03T15:00:45Z</time>
      </trkpt>
      <trkpt lat="43.58476" lon="6.27713">
        <ele>366.3</ele>
        <time>2015-06-03T15:01:02Z</time>
      </trkpt>
      <trkpt lat="43.58484" lon="6.27708">
        <ele>366.6</ele>
        <time>2015-06-03T15:01:32Z</time>
      </trkpt>
      <trkpt lat="43.58485" lon="6.27709">
        <ele>366.7</ele>
        <time>2015-06-03T15:01:33Z</time>
      </trkpt>
      <trkpt lat="43.585" lon="6.27716">
        <ele>366.3</ele>
        <time>2015-06-03T15:02:11Z</time>
      </trkpt>
      <trkpt lat="43.58508" lon="6.2772">
        <ele>365.8</ele>
        <time>2015-06-03T15:02:27Z</time>
      </trkpt>
      <trkpt lat="43.58516" lon="6.27723">
        <ele>365.9</ele>
        <time>2015-06-03T15:02:32Z</time>
      </trkpt>
      <trkpt lat="43.58524" lon="6.27728">
        <ele>366.2</ele>
        <time>2015-06-03T15:02:46Z</time>
      </trkpt>
      <trkpt lat="43.58525" lon="6.27729">
        <ele>366.2</ele>
        <time>2015-06-03T15:02:47Z</time>
      </trkpt>
      <trkpt lat="43.58523" lon="6.27726">
        <ele>366</ele>
        <time>2015-06-03T15:03:30Z</time>
      </trkpt>
      <trkpt lat="43.58519" lon="6.27726">
        <ele>366.4</ele>
        <time>2015-06-03T15:03:37Z</time>
      </trkpt>
      <trkpt lat="43.5851" lon="6.27725">
        <ele>366.5</ele>
        <time>2015-06-03T15:03:41Z</time>
      </trkpt>
      <trkpt lat="43.58502" lon="6.27723">
        <ele>366.5</ele>
        <time>2015-06-03T15:03:45Z</time>
      </trkpt>
      <trkpt lat="43.58494" lon="6.27722">
        <ele>366.5</ele>
        <time>2015-06-03T15:03:52Z</time>
      </trkpt>
      <trkpt lat="43.58493" lon="6.27723">
        <ele>366.6</ele>
        <time>2015-06-03T15:03:53Z</time>
      </trkpt>
      <trkpt lat="43.58508" lon="6.27709">
        <ele>368</ele>
        <time>2015-06-03T15:04:38Z</time>
      </trkpt>
      <trkpt lat="43.58517" lon="6.27708">
        <ele>368.5</ele>
        <time>2015-06-03T15:04:45Z</time>
      </trkpt>
      <trkpt lat="43.58526" lon="6.27707">
        <ele>369.3</ele>
        <time>2015-06-03T15:04:54Z</time>
      </trkpt>
      <trkpt lat="43.58526" lon="6.27706">
        <ele>369.3</ele>
        <time>2015-06-03T15:04:55Z</time>
      </trkpt>
      <trkpt lat="43.58526" lon="6.2771">
        <ele>374.1</ele>
        <time>2015-06-03T15:06:47Z</time>
      </trkpt>
      <trkpt lat="43.58526" lon="6.2771">
        <ele>374.1</ele>
        <time>2015-06-03T15:06:48Z</time>
      </trkpt>
      <trkpt lat="43.58541" lon="6.27719">
        <ele>377</ele>
        <time>2015-06-03T15:08:04Z</time>
      </trkpt>
      <trkpt lat="43.58541" lon="6.27718">
        <ele>377.8</ele>
        <time>2015-06-03T15:08:06Z</time>
      </trkpt>
      <trkpt lat="43.58526" lon="6.27723">
        <ele>382</ele>
        <time>2015-06-03T15:08:41Z</time>
      </trkpt>
      <trkpt lat="43.58516" lon="6.27693">
        <ele>382</ele>
        <time>2015-06-03T15:08:58Z</time>
      </trkpt>
      <trkpt lat="43.58506" lon="6.27682">
        <ele>382.3</ele>
        <time>2015-06-03T15:09:02Z</time>
      </trkpt>
      <trkpt lat="43.58504" lon="6.27693">
        <ele>382.4</ele>
        <time>2015-06-03T15:09:11Z</time>
      </trkpt>
      <trkpt lat="43.58505" lon="6.27695">
        <ele>382.5</ele>
        <time>2015-06-03T15:09:12Z</time>
      </trkpt>
      <trkpt lat="43.5851" lon="6.27714">
        <ele>382.7</ele>
        <time>2015-06-03T15:09:24Z</time>
      </trkpt>
      <trkpt lat="43.58509" lon="6.27725">
        <ele>382.4</ele>
        <time>2015-06-03T15:09:30Z</time>
      </trkpt>
      <trkpt lat="43.58512" lon="6.27735">
        <ele>382.1</ele>
        <time>2015-06-03T15:09:33Z</time>
      </trkpt>
      <trkpt lat="43.58511" lon="6.27747">
        <ele>382.2</ele>
        <time>2015-06-03T15:09:38Z</time>
      </trkpt>
      <trkpt lat="43.58513" lon="6.27756">
        <ele>381.9</ele>
        <time>2015-06-03T15:09:41Z</time>
      </trkpt>
      <trkpt lat="43.58513" lon="6.27768">
        <ele>381.6</ele>
        <time>2015-06-03T15:09:47Z</time>
      </trkpt>
      <trkpt lat="43.58509" lon="6.27779">
        <ele>381.3</ele>
        <time>2015-06-03T15:09:59Z</time>
      </trkpt>
      <trkpt lat="43.58507" lon="6.2779">
        <ele>380.1</ele>
        <time>2015-06-03T15:10:12Z</time>
      </trkpt>
      <trkpt lat="43.58507" lon="6.27791">
        <ele>380.2</ele>
        <time>2015-06-03T15:10:13Z</time>
      </trkpt>
      <trkpt lat="43.58512" lon="6.27791">
        <ele>375.2</ele>
        <time>2015-06-03T15:11:25Z</time>
      </trkpt>
      <trkpt lat="43.58512" lon="6.27791">
        <ele>375.1</ele>
        <time>2015-06-03T15:11:26Z</time>
      </trkpt>
      <trkpt lat="43.58511" lon="6.27769">
        <ele>372.3</ele>
        <time>2015-06-03T15:11:48Z</time>
      </trkpt>
      <trkpt lat="43.58507" lon="6.27758">
        <ele>371.6</ele>
        <time>2015-06-03T15:11:53Z</time>
      </trkpt>
      <trkpt lat="43.5851" lon="6.27747">
        <ele>368</ele>
        <time>2015-06-03T15:12:38Z</time>
      </trkpt>
      <trkpt lat="43.58511" lon="6.27746">
        <ele>368.8</ele>
        <time>2015-06-03T15:12:40Z</time>
      </trkpt>
      <trkpt lat="43.58511" lon="6.27747">
        <ele>369.2</ele>
        <time>2015-06-03T15:14:03Z</time>
      </trkpt>
      <trkpt lat="43.5851" lon="6.27746">
        <ele>369.3</ele>
        <time>2015-06-03T15:14:04Z</time>
      </trkpt>
      <trkpt lat="43.58512" lon="6.27755">
        <ele>369.3</ele>
        <time>2015-06-03T15:16:09Z</time>
      </trkpt>
      <trkpt lat="43.58513" lon="6.27755">
        <ele>369.3</ele>
        <time>2015-06-03T15:16:10Z</time>
      </trkpt>
      <trkpt lat="43.58503" lon="6.27758">
        <ele>369.5</ele>
        <time>2015-06-03T15:17:51Z</time>
      </trkpt>
      <trkpt lat="43.58487" lon="6.27759">
        <ele>368.3</ele>
        <time>2015-06-03T15:18:11Z</time>
      </trkpt>
      <trkpt lat="43.5848" lon="6.27764">
        <ele>368.8</ele>
        <time>2015-06-03T15:18:21Z</time>
      </trkpt>
      <trkpt lat="43.58472" lon="6.27758">
        <ele>366.9</ele>
        <time>2015-06-03T15:18:49Z</time>
      </trkpt>
      <trkpt lat="43.58473" lon="6.27747">
        <ele>366.4</ele>
        <time>2015-06-03T15:19:09Z</time>
      </trkpt>
      <trkpt lat="43.58474" lon="6.27746">
        <ele>366.4</ele>
        <time>2015-06-03T15:19:10Z</time>
      </trkpt>
      <trkpt lat="43.58465" lon="6.27727">
        <ele>366.8</ele>
        <time>2015-06-03T15:19:31Z</time>
      </trkpt>
      <trkpt lat="43.58471" lon="6.27718">
        <ele>366.7</ele>
        <time>2015-06-03T15:19:50Z</time>
      </trkpt>
      <trkpt lat="43.58465" lon="6.27711">
        <ele>366.8</ele>
        <time>2015-06-03T15:20:09Z</time>
      </trkpt>
      <trkpt lat="43.58464" lon="6.27699">
        <ele>367.1</ele>
        <time>2015-06-03T15:20:20Z</time>
      </trkpt>
      <trkpt lat="43.58464" lon="6.27698">
        <ele>367.1</ele>
        <time>2015-06-03T15:20:21Z</time>
      </trkpt>
      <trkpt lat="43.58462" lon="6.27675">
        <ele>368.7</ele>
        <time>2015-06-03T15:20:48Z</time>
      </trkpt>
      <trkpt lat="43.58454" lon="6.2767">
        <ele>367.5</ele>
        <time>2015-06-03T15:20:57Z</time>
      </trkpt>
      <trkpt lat="43.58446" lon="6.27664">
        <ele>367.1</ele>
        <time>2015-06-03T15:21:09Z</time>
      </trkpt>
      <trkpt lat="43.5844" lon="6.27657">
        <ele>366.6</ele>
        <time>2015-06-03T15:21:16Z</time>
      </trkpt>
      <trkpt lat="43.58434" lon="6.2765">
        <ele>366.5</ele>
        <time>2015-06-03T15:21:22Z</time>
      </trkpt>
      <trkpt lat="43.58433" lon="6.27649">
        <ele>366.7</ele>
        <time>2015-06-03T15:21:23Z</time>
      </trkpt>
      <trkpt lat="43.58422" lon="6.27635">
        <ele>366.6</ele>
        <time>2015-06-03T15:21:37Z</time>
      </trkpt>
      <trkpt lat="43.58416" lon="6.27626">
        <ele>365.9</ele>
        <time>2015-06-03T15:21:47Z</time>
      </trkpt>
      <trkpt lat="43.5841" lon="6.27619">
        <ele>365.1</ele>
        <time>2015-06-03T15:21:55Z</time>
      </trkpt>
      <trkpt lat="43.58403" lon="6.27612">
        <ele>365.2</ele>
        <time>2015-06-03T15:22:05Z</time>
      </trkpt>
      <trkpt lat="43.58398" lon="6.27603">
        <ele>365.9</ele>
        <time>2015-06-03T15:22:20Z</time>
      </trkpt>
      <trkpt lat="43.58393" lon="6.27593">
        <ele>365.1</ele>
        <time>2015-06-03T15:22:29Z</time>
      </trkpt>
      <trkpt lat="43.58393" lon="6.27592">
        <ele>365.4</ele>
        <time>2015-06-03T15:22:30Z</time>
      </trkpt>
    </trkseg>
  </trk>
</gpx>